Data for 09/08/2010

Time Sea-Level Adjusted Pressure Absolute Pressure Temperature Relative Humidity Dew Point Precipitation   
(mb) (inHg) (mb) (inHg) (C) (F) (%) (C) (F) (mm) (in)
00:01 1013 29.91 843 24.89 13.3 55.9 38 -0.5 31.1 13.67 0.538
00:02 1013 29.91 843 24.89 13.3 55.9 39 -0.4 31.4 13.62 0.536
00:03 1013 29.91 843 24.89 13.3 55.9 38 -0.6 30.9 13.63 0.537
00:04 1013 29.91 843 24.89 13.2 55.8 40 -0.1 31.8 13.61 0.536
00:05 1013 29.91 843 24.89 13.1 55.6 39 -0.4 31.3 13.48 0.531
00:06 1013 29.91 843 24.89 13.1 55.5 39 -0.4 31.2 13.46 0.53
00:07 1013 29.91 842 24.86 13 55.5 39 -0.6 31 13.42 0.528
00:08 1013 29.91 843 24.89 13.1 55.6 39 -0.6 30.9 13.52 0.532
00:09 1013 29.91 843 24.89 13.2 55.7 39 -0.5 31 13.55 0.533
00:10 1013 29.91 843 24.89 13.2 55.7 38 -0.6 30.9 13.62 0.536
00:11 1013 29.91 842 24.86 13.2 55.7 39 -0.4 31.2 13.57 0.534
00:12 1013 29.91 842 24.86 13.2 55.7 38 -0.7 30.7 13.58 0.535
00:13 1013 29.91 843 24.89 13.3 55.9 39 -0.4 31.2 13.64 0.537
00:14 1013 29.91 842 24.86 13.3 55.9 39 -0.4 31.3 13.64 0.537
00:15 1013 29.91 843 24.89 13.3 55.9 38 -0.5 31.1 13.64 0.537
00:16 1013 29.91 842 24.86 13.2 55.8 38 -0.5 31 13.61 0.536
00:17 1013 29.91 842 24.86 13.2 55.7 38 -0.6 30.9 13.6 0.535
00:18 1013 29.91 842 24.86 13.2 55.8 38 -0.7 30.8 13.62 0.536
00:19 1013 29.91 842 24.86 13.3 55.9 39 -0.5 31.2 13.66 0.538
00:20 1013 29.91 842 24.86 13.2 55.8 39 -0.4 31.3 13.62 0.536
00:21 1013 29.91 842 24.86 13.2 55.7 39 -0.4 31.3 13.55 0.533
00:22 1013 29.91 842 24.86 13.1 55.7 38 -0.7 30.8 13.54 0.533
00:23 1013 29.91 842 24.86 13.2 55.7 39 -0.5 31.1 13.52 0.532
00:24 1013 29.91 842 24.86 13.2 55.7 38 -0.6 30.9 13.57 0.534
00:25 1013 29.91 842 24.86 13.2 55.8 38 -0.6 30.9 13.59 0.535
00:26 1013 29.91 842 24.86 13.2 55.7 39 -0.5 31.1 13.58 0.535
00:27 1013 29.91 842 24.86 13.2 55.8 38 -0.6 30.9 13.6 0.535
00:28 1013 29.91 842 24.86 13.2 55.8 39 -0.4 31.2 13.59 0.535
00:29 1013 29.91 842 24.86 13.2 55.7 39 -0.5 31.1 13.57 0.534
00:30 1013 29.91 842 24.86 13.1 55.7 39 -0.4 31.4 13.49 0.531
00:31 1013 29.91 842 24.86 13.1 55.5 39 -0.6 30.9 13.46 0.53
00:32 1013 29.91 842 24.86 13.1 55.5 39 -0.4 31.3 13.47 0.53
00:33 1013 29.91 842 24.86 13.1 55.5 39 -0.6 31 13.48 0.531
00:34 1013 29.91 842 24.86 13.1 55.6 39 -0.5 31.1 13.52 0.532
00:35 1013 29.91 842 24.86 13.1 55.6 38 -0.7 30.8 13.51 0.532
00:36 1013 29.91 842 24.86 13.1 55.5 39 -0.5 31.1 13.47 0.53
00:37 1013 29.91 842 24.86 13.1 55.5 40 -0.3 31.5 13.46 0.53
00:38 1013 29.91 842 24.86 13.1 55.5 39 -0.5 31.1 13.44 0.529
00:39 1013 29.91 842 24.86 13.1 55.6 39 -0.5 31 13.49 0.531
00:40 1013 29.91 842 24.86 13.1 55.6 39 -0.4 31.3 13.51 0.532
00:41 1013 29.91 842 24.86 13.1 55.6 39 -0.4 31.3 13.44 0.529
00:42 1013 29.91 842 24.86 13 55.5 39 -0.5 31.2 13.44 0.529
00:43 1013 29.91 842 24.86 13.1 55.5 39 -0.6 30.9 13.48 0.531
00:44 1013 29.91 842 24.86 13.1 55.6 39 -0.4 31.3 13.55 0.533
00:45 1013 29.91 842 24.86 13.1 55.5 39 -0.6 31 13.43 0.529
00:46 1013 29.91 842 24.86 13 55.4 40 -0.3 31.5 13.37 0.526
00:47 1013 29.91 842 24.86 13 55.3 40 -0.4 31.3 13.31 0.524
00:48 1013 29.91 842 24.86 13 55.3 39 -0.5 31.1 13.37 0.526
00:49 1013 29.91 842 24.86 13 55.4 39 -0.5 31.1 13.4 0.528
00:50 1013 29.91 842 24.86 13 55.4 40 -0.4 31.4 13.39 0.527
00:51 1013 29.91 842 24.86 13 55.4 40 -0.3 31.4 13.34 0.525
00:52 1013 29.91 842 24.86 12.9 55.3 39 -0.6 31 13.33 0.525
00:53 1013 29.91 842 24.86 13 55.4 40 -0.3 31.4 13.36 0.526
00:54 1013 29.91 842 24.86 13 55.3 39 -0.4 31.2 13.33 0.525
00:55 1013 29.91 842 24.86 12.9 55.3 39 -0.6 31 13.31 0.524
00:56 1013 29.91 842 24.86 12.9 55.2 40 -0.3 31.4 13.28 0.523
00:57 1013 29.91 842 24.86 12.9 55.1 40 -0.4 31.2 13.22 0.52
00:58 1013 29.91 842 24.86 12.9 55.2 40 -0.4 31.3 13.29 0.523
00:59 1013 29.91 842 24.86 12.9 55.3 40 -0.3 31.5 13.29 0.523
01:00 1013 29.91 842 24.86 12.9 55.3 39 -0.5 31 13.27 0.522
01:01 1013 29.91 842 24.86 12.9 55.3 40 -0.4 31.3 13.29 0.523
01:02 1013 29.91 842 24.86 12.9 55.2 39 -0.5 31 13.31 0.524
01:03 1013 29.91 842 24.86 13 55.4 39 -0.5 31.1 13.36 0.526
01:04 1013 29.91 842 24.86 12.9 55.3 39 -0.5 31.1 13.32 0.524
01:05 1013 29.91 842 24.86 13 55.5 39 -0.6 30.8 13.41 0.528
01:06 1013 29.91 842 24.86 13.1 55.5 39 -0.4 31.4 13.47 0.53
01:07 1013 29.91 842 24.86 13.1 55.5 39 -0.7 30.8 13.44 0.529
01:08 1013 29.91 842 24.86 13.1 55.5 40 -0.3 31.4 13.44 0.529
01:09 1013 29.91 842 24.86 13 55.4 39 -0.4 31.2 13.33 0.525
01:10 1013 29.91 842 24.86 13 55.3 40 -0.4 31.3 13.4 0.528
01:11 1013 29.91 842 24.86 13 55.3 39 -0.5 31.1 13.31 0.524
01:12 1013 29.91 842 24.86 12.9 55.3 40 -0.4 31.3 13.29 0.523
01:13 1013 29.91 842 24.86 12.9 55.3 40 -0.4 31.2 13.3 0.524
01:14 1013 29.91 842 24.86 12.9 55.3 39 -0.6 30.9 13.36 0.526
01:15 1013 29.91 842 24.86 13 55.4 39 -0.6 31 13.41 0.528
01:16 1013 29.91 842 24.86 13 55.4 39 -0.5 31.2 13.37 0.526
01:17 1012 29.88 842 24.86 12.9 55.3 40 -0.3 31.5 13.27 0.522
01:18 1012 29.88 842 24.86 12.9 55.2 40 -0.4 31.2 13.27 0.522
01:19 1013 29.91 842 24.86 12.8 55.1 40 -0.5 31.2 13.23 0.521
01:20 1012 29.88 842 24.86 12.9 55.1 40 -0.4 31.3 13.24 0.521
01:21 1012 29.88 842 24.86 12.8 55.1 40 -0.3 31.4 13.23 0.521
01:22 1012 29.88 842 24.86 12.9 55.2 40 -0.3 31.4 13.26 0.522
01:23 1012 29.88 842 24.86 12.8 55.1 41 -0.2 31.7 13.2 0.52
01:24 1012 29.88 842 24.86 12.8 55 40 -0.4 31.3 13.19 0.519
01:25 1012 29.88 842 24.86 12.8 55 40 -0.3 31.4 13.21 0.52
01:26 1012 29.88 842 24.86 12.8 55 40 -0.3 31.5 13.18 0.519
01:27 1012 29.88 842 24.86 12.8 55 41 -0.2 31.7 13.14 0.517
01:28 1012 29.88 841 24.83 12.7 54.9 41 -0.2 31.6 13.05 0.514
01:29 1012 29.88 841 24.83 12.7 54.8 40 -0.5 31.2 13.09 0.515
01:30 1012 29.88 841 24.83 12.7 54.9 40 -0.6 31 13.15 0.518
01:31 1012 29.88 841 24.83 12.8 55 40 -0.3 31.5 13.16 0.518
01:32 1012 29.88 841 24.83 12.8 55 41 -0.2 31.7 13.11 0.516
01:33 1012 29.88 841 24.83 12.7 54.8 41 -0.2 31.6 13.06 0.514
01:34 1012 29.88 841 24.83 12.7 54.8 40 -0.4 31.4 13.08 0.515
01:35 1012 29.88 841 24.83 12.7 54.9 41 -0.1 31.7 13.07 0.515
01:36 1012 29.88 841 24.83 12.7 54.8 41 -0.3 31.5 13.05 0.514
01:37 1012 29.88 841 24.83 12.7 54.8 40 -0.3 31.4 13.09 0.515
01:38 1012 29.88 841 24.83 12.6 54.7 41 -0.2 31.6 13.04 0.513
01:39 1012 29.88 841 24.83 12.6 54.7 41 -0.2 31.6 12.98 0.511
01:40 1012 29.88 841 24.83 12.6 54.7 40 -0.4 31.3 13.01 0.512
01:41 1012 29.88 841 24.83 12.6 54.8 41 -0.3 31.5 13.03 0.513
01:42 1012 29.88 841 24.83 12.6 54.8 41 -0.3 31.5 13.06 0.514
01:43 1012 29.88 841 24.83 12.7 54.9 41 -0.2 31.6 13.05 0.514
01:44 1012 29.88 841 24.83 12.7 54.8 41 -0.3 31.5 13.09 0.515
01:45 1012 29.88 841 24.83 12.6 54.8 41 -0.3 31.4 13.07 0.515
01:46 1012 29.88 841 24.83 12.7 54.8 40 -0.4 31.3 13.08 0.515
01:47 1012 29.88 841 24.83 12.7 54.9 40 -0.3 31.5 13.13 0.517
01:48 1012 29.88 841 24.83 12.7 54.9 40 -0.4 31.2 13.1 0.516
01:49 1012 29.88 841 24.83 12.8 55 40 -0.2 31.6 13.15 0.518
01:50 1012 29.88 841 24.83 12.8 55 41 -0.1 31.8 13.15 0.518
01:51 1012 29.88 841 24.83 12.7 54.9 40 -0.4 31.2 13.11 0.516
01:52 1012 29.88 841 24.83 12.7 54.9 40 -0.4 31.3 13.1 0.516
01:53 1012 29.88 841 24.83 12.7 54.9 40 -0.5 31 13.06 0.514
01:54 1012 29.88 841 24.83 12.8 55 40 -0.4 31.4 13.15 0.518
01:55 1012 29.88 841 24.83 12.8 55.1 40 -0.4 31.3 13.19 0.519
01:56 1012 29.88 841 24.83 12.8 55.1 39 -0.6 31 13.26 0.522
01:57 1012 29.88 841 24.83 12.9 55.2 40 -0.3 31.5 13.29 0.523
01:58 1012 29.88 841 24.83 12.8 55.1 41 -0.2 31.7 13.19 0.519
01:59 1012 29.88 841 24.83 12.7 54.9 40 -0.4 31.3 13.15 0.518
02:00 1012 29.88 841 24.83 12.7 54.9 40 -0.5 31.1 13.13 0.517
02:01 1012 29.88 841 24.83 12.8 55 40 -0.3 31.5 13.11 0.516
02:02 1012 29.88 841 24.83 12.7 54.9 40 -0.5 31.2 13.11 0.516
02:03 1012 29.88 841 24.83 12.7 54.9 40 -0.3 31.4 13.08 0.515
02:04 1012 29.88 841 24.83 12.7 54.8 41 -0.3 31.5 13.08 0.515
02:05 1012 29.88 841 24.83 12.7 54.8 40 -0.4 31.3 13.05 0.514
02:06 1012 29.88 841 24.83 12.7 54.8 41 -0.2 31.6 13.08 0.515
02:07 1012 29.88 841 24.83 12.7 54.8 41 -0.2 31.6 13.04 0.513
02:08 1012 29.88 841 24.83 12.6 54.7 41 -0.2 31.7 13.02 0.513
02:09 1012 29.88 841 24.83 12.6 54.6 40 -0.4 31.2 12.96 0.51
02:10 1012 29.88 841 24.83 12.6 54.7 41 -0.4 31.4 13.03 0.513
02:11 1012 29.88 841 24.83 12.6 54.7 42 -0 32 13.01 0.512
02:12 1012 29.88 841 24.83 12.5 54.6 41 -0.3 31.5 12.9 0.508
02:13 1012 29.88 841 24.83 12.5 54.5 41 -0.3 31.5 12.9 0.508
02:14 1012 29.88 841 24.83 12.5 54.4 41 -0.3 31.5 12.85 0.506
02:15 1012 29.88 841 24.83 12.4 54.4 42 -0.2 31.7 12.82 0.505
02:16 1012 29.88 841 24.83 12.4 54.4 41 -0.3 31.4 12.81 0.504
02:17 1012 29.88 841 24.83 12.5 54.4 42 -0 32 12.85 0.506
02:18 1012 29.88 841 24.83 12.5 54.5 41 -0.3 31.4 12.91 0.508
02:19 1012 29.88 841 24.83 12.6 54.6 41 -0.3 31.5 13 0.512
02:20 1012 29.88 841 24.83 12.6 54.7 41 -0.1 31.8 12.98 0.511
02:21 1012 29.88 841 24.83 12.6 54.6 41 -0.3 31.4 12.96 0.51
02:22 1012 29.88 842 24.86 12.6 54.7 41 -0.3 31.5 13 0.512
02:23 1012 29.88 841 24.83 12.6 54.6 41 -0.2 31.6 12.97 0.511
02:24 1012 29.88 841 24.83 12.6 54.6 41 -0.1 31.8 12.94 0.509
02:25 1012 29.88 841 24.83 12.5 54.6 41 -0.1 31.7 12.88 0.507
02:26 1012 29.88 841 24.83 12.5 54.5 41 -0.2 31.6 12.86 0.506
02:27 1012 29.88 841 24.83 12.5 54.5 41 -0.2 31.6 12.86 0.506
02:28 1012 29.88 841 24.83 12.5 54.4 41 -0.2 31.7 12.88 0.507
02:29 1012 29.88 841 24.83 12.5 54.5 41 -0.2 31.6 12.86 0.506
02:30 1012 29.88 841 24.83 12.4 54.4 41 -0.2 31.6 12.81 0.504
02:31 1012 29.88 841 24.83 12.4 54.4 42 0 32.1 12.78 0.503
02:32 1012 29.88 841 24.83 12.4 54.3 42 -0.2 31.6 12.8 0.504
02:33 1012 29.88 841 24.83 12.4 54.3 42 -0.1 31.7 12.8 0.504
02:34 1012 29.88 841 24.83 12.4 54.4 41 -0.3 31.5 12.8 0.504
02:35 1012 29.88 841 24.83 12.4 54.3 42 -0.2 31.6 12.78 0.503
02:36 1012 29.88 841 24.83 12.4 54.4 42 -0.2 31.7 12.82 0.505
02:37 1012 29.88 841 24.83 12.4 54.4 41 -0.3 31.4 12.83 0.505
02:38 1012 29.88 841 24.83 12.5 54.5 41 -0.3 31.4 12.93 0.509
02:39 1012 29.88 841 24.83 12.5 54.6 41 -0.2 31.6 12.91 0.508
02:40 1012 29.88 841 24.83 12.5 54.5 42 -0.2 31.7 12.83 0.505
02:41 1012 29.88 841 24.83 12.5 54.4 41 -0.2 31.6 12.84 0.506
02:42 1012 29.88 841 24.83 12.5 54.4 41 -0.3 31.4 12.88 0.507
02:43 1012 29.88 841 24.83 12.5 54.5 41 -0.3 31.4 12.95 0.51
02:44 1012 29.88 841 24.83 12.5 54.6 41 -0.3 31.4 12.96 0.51
02:45 1012 29.88 841 24.83 12.6 54.7 41 -0.2 31.7 12.99 0.511
02:46 1012 29.88 841 24.83 12.5 54.6 42 -0.1 31.8 12.92 0.509
02:47 1012 29.88 841 24.83 12.5 54.6 41 -0.3 31.5 12.91 0.508
02:48 1012 29.88 841 24.83 12.6 54.6 41 -0.1 31.7 12.9 0.508
02:49 1012 29.88 841 24.83 12.5 54.5 41 -0.2 31.7 12.88 0.507
02:50 1012 29.88 841 24.83 12.5 54.5 42 -0.1 31.8 12.83 0.505
02:51 1012 29.88 841 24.83 12.5 54.4 41 -0.2 31.6 12.85 0.506
02:52 1012 29.88 841 24.83 12.5 54.5 41 -0.3 31.5 12.87 0.507
02:53 1012 29.88 841 24.83 12.5 54.6 41 -0.2 31.6 12.92 0.509
02:54 1012 29.88 841 24.83 12.5 54.5 42 0 32 12.89 0.507
02:55 1012 29.88 841 24.83 12.5 54.4 42 0 32 12.86 0.506
02:56 1012 29.88 841 24.83 12.5 54.4 42 -0.1 31.8 12.83 0.505
02:57 1012 29.88 841 24.83 12.4 54.4 41 -0.3 31.5 12.83 0.505
02:58 1012 29.88 841 24.83 12.5 54.4 42 -0.1 31.8 12.83 0.505
02:59 1012 29.88 842 24.86 12.5 54.4 41 -0.3 31.4 12.82 0.505
03:00 1012 29.88 842 24.86 12.5 54.4 41 -0.3 31.4 12.86 0.506
03:01 1012 29.88 842 24.86 12.5 54.5 42 -0.1 31.9 12.89 0.507
03:02 1012 29.88 842 24.86 12.5 54.4 41 -0.2 31.6 12.82 0.505
03:03 1012 29.88 842 24.86 12.4 54.4 41 -0.4 31.3 12.8 0.504
03:04 1012 29.88 842 24.86 12.5 54.4 41 -0.2 31.7 12.88 0.507
03:05 1012 29.88 842 24.86 12.5 54.4 41 -0.4 31.3 12.81 0.504
03:06 1012 29.88 842 24.86 12.5 54.4 41 -0.3 31.4 12.85 0.506
03:07 1012 29.88 842 24.86 12.5 54.5 42 -0.1 31.8 12.86 0.506
03:08 1013 29.91 842 24.86 12.5 54.5 41 -0.4 31.2 12.91 0.508
03:09 1013 29.91 842 24.86 12.6 54.7 40 -0.6 31 13.04 0.513
03:10 1012 29.88 842 24.86 12.7 54.9 40 -0.4 31.4 13.12 0.517
03:11 1012 29.88 842 24.86 12.7 54.9 40 -0.3 31.5 13.09 0.515
03:12 1012 29.88 842 24.86 12.7 54.8 40 -0.4 31.3 13.02 0.513
03:13 1012 29.88 842 24.86 12.6 54.7 41 -0.2 31.7 12.98 0.511
03:14 1013 29.91 842 24.86 12.6 54.6 42 0.1 32.2 12.9 0.508
03:15 1013 29.91 842 24.86 12.4 54.3 41 -0.3 31.4 12.77 0.503
03:16 1013 29.91 842 24.86 12.4 54.3 42 -0.1 31.8 12.79 0.504
03:17 1013 29.91 842 24.86 12.4 54.3 42 -0.2 31.7 12.74 0.502
03:18 1012 29.88 842 24.86 12.3 54.2 43 0.1 32.1 12.72 0.501
03:19 1012 29.88 842 24.86 12.3 54.2 42 -0.2 31.6 12.68 0.499
03:20 1012 29.88 842 24.86 12.3 54.1 41 -0.4 31.3 12.7 0.5
03:21 1012 29.88 842 24.86 12.4 54.3 42 -0.1 31.7 12.77 0.503
03:22 1012 29.88 842 24.86 12.4 54.3 42 -0.2 31.6 12.76 0.502
03:23 1012 29.88 842 24.86 12.4 54.3 42 -0 32 12.8 0.504
03:24 1012 29.88 841 24.83 12.4 54.4 41 -0.3 31.5 12.82 0.505
03:25 1012 29.88 841 24.83 12.5 54.5 40 -0.5 31.1 12.95 0.51
03:26 1012 29.88 841 24.83 12.6 54.7 41 -0.2 31.6 13 0.512
03:27 1012 29.88 841 24.83 12.6 54.7 41 -0.3 31.4 12.96 0.51
03:28 1012 29.88 841 24.83 12.6 54.7 41 -0.4 31.3 12.95 0.51
03:29 1012 29.88 841 24.83 12.6 54.6 41 -0.1 31.8 12.96 0.51
03:30 1012 29.88 841 24.83 12.6 54.6 41 -0.1 31.7 12.93 0.509
03:31 1012 29.88 841 24.83 12.5 54.5 41 -0.2 31.6 12.88 0.507
03:32 1012 29.88 841 24.83 12.5 54.5 42 -0.2 31.7 12.87 0.507
03:33 1012 29.88 841 24.83 12.4 54.4 41 -0.4 31.3 12.82 0.505
03:34 1012 29.88 841 24.83 12.5 54.4 41 -0.4 31.3 12.89 0.507
03:35 1012 29.88 841 24.83 12.6 54.6 40 -0.6 31 12.94 0.509
03:36 1012 29.88 841 24.83 12.6 54.7 41 -0.1 31.7 13.01 0.512
03:37 1012 29.88 841 24.83 12.6 54.6 42 -0.1 31.9 12.88 0.507
03:38 1012 29.88 841 24.83 12.5 54.4 41 -0.5 31.1 12.84 0.506
03:39 1012 29.88 841 24.83 12.5 54.6 41 -0.4 31.3 12.95 0.51
03:40 1012 29.88 841 24.83 12.6 54.7 40 -0.7 30.8 13.02 0.513
03:41 1012 29.88 841 24.83 12.7 54.8 40 -0.4 31.2 13.09 0.515
03:42 1012 29.88 841 24.83 12.6 54.7 41 -0.2 31.6 13.03 0.513
03:43 1012 29.88 841 24.83 12.6 54.7 40 -0.6 30.9 13.02 0.513
03:44 1012 29.88 841 24.83 12.7 54.8 40 -0.6 30.9 13.1 0.516
03:45 1012 29.88 841 24.83 12.8 55 40 -0.4 31.3 13.14 0.517
03:46 1012 29.88 841 24.83 12.7 54.9 40 -0.4 31.2 13.14 0.517
03:47 1012 29.88 841 24.83 12.7 54.9 39 -0.7 30.7 13.13 0.517
03:48 1012 29.88 841 24.83 12.8 55 40 -0.5 31 13.18 0.519
03:49 1012 29.88 841 24.83 12.8 55 40 -0.6 31 13.17 0.519
03:50 1012 29.88 841 24.83 12.8 55 40 -0.6 31 13.18 0.519
03:51 1012 29.88 841 24.83 12.8 55 40 -0.5 31 13.08 0.515
03:52 1012 29.88 841 24.83 12.7 54.9 40 -0.5 31.1 13.12 0.517
03:53 1012 29.88 842 24.86 12.7 54.8 40 -0.5 31.1 13.03 0.513
03:54 1012 29.88 842 24.86 12.6 54.7 40 -0.6 31 12.99 0.511
03:55 1012 29.88 842 24.86 12.6 54.7 40 -0.5 31.1 13.01 0.512
03:56 1012 29.88 842 24.86 12.6 54.6 41 -0.3 31.4 12.96 0.51
03:57 1012 29.88 842 24.86 12.5 54.6 41 -0.4 31.3 12.86 0.506
03:58 1012 29.88 842 24.86 12.5 54.4 41 -0.2 31.6 12.81 0.504
03:59 1012 29.88 842 24.86 12.4 54.3 41 -0.3 31.4 12.7 0.5
04:00 1012 29.88 842 24.86 12.3 54.2 41 -0.4 31.2 12.67 0.499
04:01 1012 29.88 842 24.86 12.3 54.1 41 -0.5 31.2 12.62 0.497
04:02 1013 29.91 842 24.86 12.3 54.1 42 -0.3 31.4 12.59 0.496
04:03 1013 29.91 842 24.86 12.2 54 42 -0.1 31.8 12.55 0.494
04:04 1013 29.91 842 24.86 12.1 53.8 42 -0.4 31.3 12.44 0.49
04:05 1012 29.88 842 24.86 12.1 53.7 42 -0.3 31.4 12.44 0.49
04:06 1012 29.88 842 24.86 12.1 53.8 41 -0.6 30.9 12.45 0.49
04:07 1013 29.91 842 24.86 12.1 53.7 42 -0.3 31.5 12.44 0.49
04:08 1013 29.91 842 24.86 12 53.6 42 -0.4 31.2 12.36 0.487
04:09 1013 29.91 842 24.86 12 53.6 43 -0 31.9 12.35 0.486
04:10 1013 29.91 842 24.86 11.9 53.3 43 -0.3 31.4 12.26 0.483
04:11 1012 29.88 842 24.86 11.9 53.4 43 -0.2 31.6 12.23 0.481
04:12 1012 29.88 842 24.86 11.8 53.3 43 -0.2 31.6 12.16 0.479
04:13 1013 29.91 842 24.86 11.7 53.1 44 -0.1 31.9 12.06 0.475
04:14 1013 29.91 842 24.86 11.6 53 43 -0.3 31.5 12.01 0.473
04:15 1013 29.91 842 24.86 11.7 53 43 -0.3 31.4 12.06 0.475
04:16 1013 29.91 842 24.86 11.7 53.1 45 0.1 32.2 12.01 0.473
04:17 1013 29.91 842 24.86 11.6 52.8 44 -0.2 31.7 11.94 0.47
04:18 1013 29.91 842 24.86 11.6 52.8 44 -0.2 31.7 11.99 0.472
04:19 1013 29.91 842 24.86 11.6 52.8 44 -0.3 31.5 11.97 0.471
04:20 1013 29.91 842 24.86 11.6 52.9 45 -0 32 11.95 0.47
04:21 1013 29.91 842 24.86 11.5 52.8 44 -0.4 31.3 11.97 0.471
04:22 1013 29.91 842 24.86 11.7 53 43 -0.4 31.3 12.07 0.475
04:23 1013 29.91 842 24.86 11.7 53.1 43 -0.3 31.5 12.15 0.478
04:24 1013 29.91 842 24.86 11.8 53.2 43 -0.3 31.5 12.17 0.479
04:25 1013 29.91 842 24.86 11.8 53.2 44 0.1 32.1 12.09 0.476
04:26 1013 29.91 842 24.86 11.7 53 43 -0.3 31.4 12.06 0.475
04:27 1013 29.91 842 24.86 11.7 53 43 -0.3 31.5 12.09 0.476
04:28 1013 29.91 842 24.86 11.7 53.1 43 -0.3 31.4 12.1 0.476
04:29 1013 29.91 842 24.86 11.7 53.1 43 -0.3 31.5 12.11 0.477
04:30 1012 29.88 842 24.86 11.7 53.1 44 -0 31.9 12.09 0.476
04:31 1012 29.88 842 24.86 11.7 53.1 44 -0.1 31.8 12.1 0.476
04:32 1012 29.88 842 24.86 11.7 53.1 44 -0.1 31.8 12.1 0.476
04:33 1012 29.88 842 24.86 11.7 53.1 45 0.1 32.2 12.09 0.476
04:34 1012 29.88 842 24.86 11.7 53 44 -0.1 31.8 12.01 0.473
04:35 1012 29.88 842 24.86 11.7 53.1 44 -0.1 31.8 12.09 0.476
04:36 1012 29.88 842 24.86 11.7 53 45 0.2 32.3 12.06 0.475
04:37 1012 29.88 842 24.86 11.7 53 44 -0.2 31.6 12.09 0.476
04:38 1012 29.88 842 24.86 11.7 53.1 44 0 32 12.13 0.478
04:39 1012 29.88 842 24.86 11.7 53.1 44 0 32.1 12.06 0.475
04:40 1012 29.88 842 24.86 11.6 52.9 44 -0 32 12.04 0.474
04:41 1012 29.88 842 24.86 11.6 52.9 46 0.5 32.9 12.01 0.473
04:42 1012 29.88 842 24.86 11.5 52.7 47 0.7 33.2 11.89 0.468
04:43 1012 29.88 842 24.86 11.3 52.4 47 0.6 33 11.68 0.46
04:44 1012 29.88 841 24.83 11.2 52.2 46 -0.1 31.9 11.7 0.461
04:45 1012 29.88 841 24.83 11.4 52.6 45 -0.1 31.8 11.89 0.468
04:46 1012 29.88 841 24.83 11.6 52.9 44 -0.2 31.7 11.98 0.472
04:47 1012 29.88 841 24.83 11.7 53.1 44 -0 32 12.14 0.478
04:48 1012 29.88 841 24.83 11.9 53.4 44 0.2 32.3 12.24 0.482
04:49 1012 29.88 841 24.83 11.8 53.3 46 0.7 33.3 12.2 0.48
04:50 1012 29.88 841 24.83 11.7 53.1 46 0.4 32.7 12.05 0.474
04:51 1012 29.88 841 24.83 11.6 52.9 45 0.2 32.4 12.05 0.474
04:52 1012 29.88 841 24.83 11.7 53.1 45 0.1 32.2 12.14 0.478
04:53 1012 29.88 841 24.83 11.9 53.4 44 0.1 32.1 12.32 0.485
04:54 1012 29.88 841 24.83 12 53.5 44 0.1 32.2 12.41 0.489
04:55 1012 29.88 841 24.83 12.1 53.7 43 -0 32 12.41 0.489
04:56 1012 29.88 841 24.83 12.1 53.7 45 0.5 32.9 12.47 0.491
04:57 1012 29.88 842 24.86 12 53.6 45 0.6 33.1 12.42 0.489
04:58 1012 29.88 842 24.86 11.8 53.3 46 0.8 33.4 12.28 0.483
04:59 1012 29.88 841 24.83 11.7 53.1 47 0.8 33.4 12.11 0.477
05:00 1012 29.88 841 24.83 11.6 52.8 46 0.5 33 11.97 0.471
05:01 1012 29.88 841 24.83 11.6 52.8 47 0.6 33.1 11.98 0.472
05:02 1012 29.88 841 24.83 11.5 52.8 47 0.8 33.4 11.94 0.47
05:03 1012 29.88 841 24.83 11.5 52.6 48 0.8 33.4 11.84 0.466
05:04 1012 29.88 841 24.83 11.4 52.5 47 0.6 33.2 11.76 0.463
05:05 1012 29.88 841 24.83 11.4 52.5 47 0.5 32.8 11.78 0.464
05:06 1012 29.88 841 24.83 11.4 52.6 48 0.9 33.5 11.8 0.465
05:07 1012 29.88 842 24.86 11.3 52.3 49 0.9 33.7 11.71 0.461
05:08 1012 29.88 842 24.86 11.1 51.9 51 1.4 34.4 11.5 0.453
05:09 1012 29.88 842 24.86 10.8 51.4 52 1.4 34.6 11.24 0.443
05:10 1012 29.88 842 24.86 10.5 50.9 54 1.6 34.8 10.94 0.431
05:11 1012 29.88 841 24.83 10.3 50.5 53 1.2 34.1 10.7 0.421
05:12 1012 29.88 841 24.83 10.2 50.4 53 1.1 33.9 10.6 0.417
05:13 1012 29.88 841 24.83 10.1 50.2 54 1.2 34.1 10.46 0.412
05:14 1012 29.88 841 24.83 9.9 49.9 55 1.4 34.4 10.28 0.405
05:15 1012 29.88 841 24.83 9.8 49.6 55 1.2 34.1 10.1 0.398
05:16 1012 29.88 841 24.83 9.6 49.3 56 1.3 34.3 9.97 0.393
05:17 1012 29.88 841 24.83 9.5 49.1 55 0.9 33.7 9.84 0.387
05:18 1012 29.88 841 24.83 9.5 49.1 55 1 33.9 9.81 0.386
05:19 1012 29.88 841 24.83 9.5 49.2 56 1.3 34.4 9.79 0.385
05:20 1012 29.88 841 24.83 9.4 48.9 59 1.7 35.1 9.71 0.382
05:21 1012 29.88 841 24.83 9.1 48.4 58 1.4 34.6 9.46 0.372
05:22 1012 29.88 841 24.83 9 48.2 59 1.5 34.6 9.31 0.367
05:23 1012 29.88 841 24.83 8.9 47.9 60 1.5 34.6 9.22 0.363
05:24 1012 29.88 841 24.83 8.8 47.9 59 1.2 34.2 9.18 0.361
05:25 1012 29.88 841 24.83 9.1 48.3 58 1.3 34.4 9.39 0.37
05:26 1012 29.88 841 24.83 9.2 48.6 57 1.1 33.9 9.59 0.378
05:27 1012 29.88 841 24.83 9.3 48.8 56 1 33.9 9.66 0.38
05:28 1012 29.88 841 24.83 9.4 48.9 55 0.8 33.5 9.78 0.385
05:29 1012 29.88 841 24.83 9.6 49.2 55 1 33.9 9.92 0.391
05:30 1012 29.88 841 24.83 9.6 49.3 55 1.2 34.1 9.99 0.393
05:31 1012 29.88 841 24.83 9.6 49.3 55 1.2 34.1 9.97 0.393
05:32 1012 29.88 841 24.83 9.8 49.6 56 1.4 34.5 10.12 0.398
05:33 1012 29.88 841 24.83 10 49.9 54 1.1 34 10.36 0.408
05:34 1012 29.88 841 24.83 10.2 50.4 52 0.9 33.7 10.59 0.417
05:35 1012 29.88 841 24.83 10.5 51 50 0.7 33.3 10.94 0.431
05:36 1012 29.88 841 24.83 10.9 51.6 49 0.7 33.3 11.26 0.443
05:37 1012 29.88 841 24.83 11.3 52.3 47 0.3 32.5 11.69 0.46
05:38 1012 29.88 841 24.83 11.6 52.9 47 0.8 33.4 11.98 0.472
05:39 1012 29.88 841 24.83 11.8 53.2 46 0.6 33.2 12.13 0.478
05:40 1012 29.88 841 24.83 11.9 53.4 47 0.9 33.6 12.23 0.481
05:41 1012 29.88 841 24.83 11.9 53.5 47 0.9 33.7 12.28 0.483
05:42 1012 29.88 841 24.83 12 53.6 46 0.8 33.4 12.35 0.486
05:43 1012 29.88 841 24.83 12 53.6 46 0.9 33.5 12.38 0.487
05:44 1012 29.88 841 24.83 12 53.6 47 1.1 33.9 12.38 0.487
05:45 1012 29.88 841 24.83 12 53.5 48 1.2 34.2 12.3 0.484
05:46 1012 29.88 841 24.83 11.9 53.4 48 1.3 34.3 12.23 0.481
05:47 1012 29.88 841 24.83 11.8 53.2 48 1.2 34.2 12.11 0.477
05:48 1012 29.88 841 24.83 11.8 53.2 47 0.7 33.3 12.14 0.478
05:49 1012 29.88 841 24.83 11.9 53.3 47 0.8 33.5 12.27 0.483
05:50 1012 29.88 841 24.83 12 53.5 46 0.8 33.4 12.35 0.486
05:51 1012 29.88 841 24.83 12 53.5 46 0.8 33.5 12.35 0.486
05:52 1012 29.88 841 24.83 12 53.6 46 0.9 33.5 12.37 0.487
05:53 1012 29.88 841 24.83 12.1 53.8 46 0.8 33.4 12.49 0.492
05:54 1012 29.88 841 24.83 12.2 54 47 1.2 34.1 12.57 0.495
05:55 1012 29.88 841 24.83 12.1 53.8 47 1.3 34.3 12.48 0.491
05:56 1012 29.88 841 24.83 11.9 53.5 49 1.5 34.7 12.31 0.485
05:57 1012 29.88 841 24.83 11.8 53.3 48 1.2 34.2 12.22 0.481
05:58 1012 29.88 841 24.83 11.8 53.2 48 1.2 34.2 12.14 0.478
05:59 1012 29.88 841 24.83 11.7 53.1 47 0.9 33.7 12.13 0.478
06:00 1012 29.88 841 24.83 11.8 53.2 48 1.1 34 12.2 0.48
06:01 1012 29.88 841 24.83 11.8 53.2 49 1.4 34.5 12.19 0.48
06:02 1012 29.88 841 24.83 11.8 53.3 48 1.2 34.1 12.24 0.482
06:03 1012 29.88 841 24.83 11.9 53.5 46 0.9 33.6 12.38 0.487
06:04 1012 29.88 841 24.83 12.1 53.8 46 0.9 33.6 12.5 0.492
06:05 1012 29.88 841 24.83 12.2 54 46 1 33.8 12.65 0.498
06:06 1012 29.88 841 24.83 12.3 54.2 46 1 33.9 12.68 0.499
06:07 1012 29.88 841 24.83 12.4 54.2 46 1.2 34.2 12.73 0.501
06:08 1012 29.88 841 24.83 12.3 54.2 47 1.3 34.4 12.7 0.5
06:09 1012 29.88 841 24.83 12.4 54.2 47 1.3 34.4 12.61 0.496
06:10 1012 29.88 841 24.83 12.3 54.1 47 1.5 34.7 12.64 0.498
06:11 1012 29.88 841 24.83 12.2 53.9 49 1.9 35.4 12.52 0.493
06:12 1012 29.88 841 24.83 12 53.6 50 1.8 35.3 12.27 0.483
06:13 1012 29.88 841 24.83 11.7 53.1 49 1.5 34.8 11.97 0.471
06:14 1012 29.88 841 24.83 11.5 52.7 50 1.4 34.6 11.75 0.463
06:15 1012 29.88 841 24.83 11.4 52.5 48 0.8 33.4 11.78 0.464
06:16 1012 29.88 841 24.83 11.6 52.9 48 1.1 33.9 12 0.472
06:17 1012 29.88 841 24.83 11.6 52.9 49 1.4 34.5 12.06 0.475
06:18 1012 29.88 841 24.83 11.6 52.9 50 1.5 34.8 12 0.472
06:19 1012 29.88 841 24.83 11.3 52.4 53 2.1 35.8 11.72 0.461
06:20 1012 29.88 841 24.83 11.1 51.9 53 1.9 35.5 11.46 0.451
06:21 1012 29.88 841 24.83 11 51.7 54 2 35.6 11.4 0.449
06:22 1012 29.88 841 24.83 11 51.8 52 1.7 35 11.37 0.448
06:23 1012 29.88 841 24.83 11.1 52 53 1.9 35.3 11.5 0.453
06:24 1012 29.88 841 24.83 11.2 52.1 51 1.5 34.7 11.5 0.453
06:25 1012 29.88 841 24.83 11.3 52.3 49 1.1 33.9 11.68 0.46
06:26 1012 29.88 841 24.83 11.5 52.7 49 1.1 34 11.96 0.471
06:27 1012 29.88 841 24.83 11.8 53.2 49 1.5 34.8 12.15 0.478
06:28 1012 29.88 841 24.83 11.9 53.4 48 1.3 34.3 12.29 0.484
06:29 1012 29.88 841 24.83 12 53.6 48 1.5 34.8 12.42 0.489
06:30 1012 29.88 841 24.83 12.1 53.7 49 1.6 34.9 12.41 0.489
06:31 1012 29.88 841 24.83 12.1 53.7 50 1.9 35.4 12.37 0.487
06:32 1012 29.88 841 24.83 11.9 53.4 47 1.1 34 12.16 0.479
06:33 1012 29.88 841 24.83 11.7 53 48 1.1 34.1 11.92 0.469
06:34 1012 29.88 841 24.83 11.5 52.7 48 1 33.9 11.74 0.462
06:35 1012 29.88 841 24.83 11.4 52.4 49 1.1 33.9 11.7 0.461
06:36 1012 29.88 841 24.83 11.3 52.3 50 1.2 34.2 11.6 0.457
06:37 1012 29.88 841 24.83 11.2 52.1 51 1.5 34.7 11.49 0.452
06:38 1012 29.88 841 24.83 11 51.9 52 1.7 35 11.41 0.449
06:39 1012 29.88 841 24.83 10.9 51.6 53 1.9 35.4 11.31 0.445
06:40 1012 29.88 841 24.83 10.9 51.5 53 1.8 35.2 11.23 0.442
06:41 1012 29.88 841 24.83 10.8 51.4 53 1.7 35.1 11.19 0.441
06:42 1012 29.88 841 24.83 10.8 51.4 53 1.6 35 11.17 0.44
06:43 1012 29.88 841 24.83 10.8 51.4 51 1 33.9 11.17 0.44
06:44 1012 29.88 841 24.83 10.8 51.4 51 1.2 34.2 11.2 0.441
06:45 1012 29.88 841 24.83 10.8 51.5 52 1.4 34.4 11.21 0.441
06:46 1012 29.88 841 24.83 10.8 51.5 58 2.9 37.1 11.23 0.442
06:47 1012 29.88 841 24.83 10.6 51.1 60 3.2 37.7 11.05 0.435
06:48 1012 29.88 841 24.83 10.3 50.5 59 2.6 36.7 10.73 0.422
06:49 1012 29.88 841 24.83 10.1 50.1 56 1.7 35.1 10.47 0.412
06:50 1012 29.88 841 24.83 10 50 54 1.3 34.3 10.37 0.408
06:51 1012 29.88 841 24.83 10.1 50.1 60 2.7 36.9 10.4 0.409
06:52 1012 29.88 841 24.83 10.1 50.1 55 1.6 34.8 10.42 0.41
06:53 1012 29.88 841 24.83 10.1 50.2 57 2.1 35.7 10.48 0.413
06:54 1012 29.88 841 24.83 10.1 50.3 59 2.4 36.3 10.47 0.412
06:55 1012 29.88 841 24.83 10.2 50.3 55 1.7 35 10.56 0.416
06:56 1012 29.88 841 24.83 10.3 50.6 58 2.5 36.5 10.73 0.422
06:57 1012 29.88 841 24.83 10.3 50.6 57 2.3 36.2 10.76 0.424
06:58 1012 29.88 841 24.83 10.5 50.8 57 2.3 36.1 10.88 0.428
06:59 1012 29.88 841 24.83 10.7 51.2 56 2.2 36 11.05 0.435
07:00 1012 29.88 841 24.83 10.7 51.3 56 2.3 36.2 11.09 0.437
07:01 1012 29.88 841 24.83 10.8 51.4 56 2.3 36.1 11.12 0.438
07:02 1012 29.88 841 24.83 10.9 51.5 55 2.2 36 11.25 0.443
07:03 1012 29.88 841 24.83 11 51.7 55 2.2 36 11.35 0.447
07:04 1012 29.88 841 24.83 11.1 51.9 55 2.5 36.5 11.44 0.45
07:05 1012 29.88 841 24.83 11.1 52 57 2.9 37.2 11.46 0.451
07:06 1012 29.88 841 24.83 11 51.8 60 3.7 38.6 11.42 0.45
07:07 1012 29.88 841 24.83 10.8 51.5 60 3.4 38.2 11.25 0.443
07:08 1012 29.88 841 24.83 10.7 51.3 62 3.7 38.7 11.12 0.438
07:09 1012 29.88 841 24.83 10.5 51 60 3.1 37.6 10.9 0.429
07:10 1012 29.88 842 24.86 10.4 50.6 63 3.6 38.5 10.7 0.421
07:11 1012 29.88 842 24.86 10.2 50.3 63 3.4 38.1 10.5 0.413
07:12 1012 29.88 842 24.86 10 49.9 63 3.4 38.1 10.29 0.405
07:13 1012 29.88 842 24.86 9.8 49.7 63 3 37.5 10.15 0.4
07:14 1012 29.88 842 24.86 9.8 49.6 63 3 37.4 10.06 0.396
07:15 1012 29.88 842 24.86 9.7 49.4 63 3 37.4 10.05 0.396
07:16 1013 29.91 842 24.86 9.7 49.4 62 2.8 37 10.02 0.394
07:17 1013 29.91 842 24.86 9.7 49.4 62 2.7 36.8 10.02 0.394
07:18 1012 29.88 842 24.86 9.7 49.4 61 2.7 36.8 10.05 0.396
07:19 1012 29.88 842 24.86 9.7 49.4 57 1.6 35 10.05 0.396
07:20 1013 29.91 842 24.86 9.7 49.5 62 2.7 36.9 10.07 0.396
07:21 1013 29.91 842 24.86 9.7 49.5 60 2.4 36.4 10.14 0.399
07:22 1013 29.91 842 24.86 9.8 49.6 55 1.1 34 10.15 0.4
07:23 1013 29.91 842 24.86 9.9 49.8 57 1.7 35.1 10.31 0.406
07:24 1013 29.91 842 24.86 10 50.1 58 2.2 36 10.47 0.412
07:25 1013 29.91 842 24.86 10.1 50.1 59 2.4 36.4 10.39 0.409
07:26 1013 29.91 842 24.86 10 50 59 2.5 36.5 10.38 0.409
07:27 1013 29.91 842 24.86 9.9 49.9 59 2.4 36.3 10.32 0.406
07:28 1013 29.91 842 24.86 9.9 49.8 60 2.6 36.7 10.28 0.405
07:29 1013 29.91 842 24.86 9.9 49.7 59 2.3 36.2 10.25 0.404
07:30 1013 29.91 842 24.86 9.8 49.6 60 2.5 36.4 10.21 0.402
07:31 1013 29.91 842 24.86 9.8 49.6 60 2.5 36.4 10.15 0.4
07:32 1013 29.91 842 24.86 9.8 49.6 61 2.7 36.8 10.14 0.399
07:33 1013 29.91 842 24.86 9.8 49.6 61 2.6 36.6 10.13 0.399
07:34 1013 29.91 842 24.86 9.8 49.6 61 2.6 36.6 10.1 0.398
07:35 1013 29.91 842 24.86 9.7 49.4 61 2.6 36.7 10.06 0.396
07:36 1013 29.91 842 24.86 9.6 49.4 61 2.5 36.5 10.03 0.395
07:37 1013 29.91 842 24.86 9.6 49.3 62 2.8 37.1 9.99 0.393
07:38 1013 29.91 842 24.86 9.5 49.1 62 2.7 36.8 9.91 0.39
07:39 1013 29.91 842 24.86 9.5 49 64 3 37.5 9.87 0.389
07:40 1013 29.91 842 24.86 9.4 48.8 63 2.8 37 9.71 0.382
07:41 1013 29.91 842 24.86 9.2 48.6 63 2.7 36.8 9.63 0.379
07:42 1013 29.91 842 24.86 9.2 48.5 65 3.1 37.5 9.55 0.376
07:43 1013 29.91 842 24.86 9.1 48.4 65 3 37.4 9.46 0.372
07:44 1013 29.91 842 24.86 9 48.2 67 3.1 37.6 9.4 0.37
07:45 1013 29.91 842 24.86 8.9 48.1 67 3.1 37.6 9.33 0.367
07:46 1013 29.91 842 24.86 8.9 47.9 68 3.2 37.8 9.22 0.363
07:47 1013 29.91 842 24.86 8.7 47.7 69 3.4 38 9.15 0.36
07:48 1013 29.91 842 24.86 8.7 47.6 68 3.2 37.8 9.06 0.357
07:49 1013 29.91 842 24.86 8.6 47.5 69 3.3 37.9 9.02 0.355
07:50 1013 29.91 842 24.86 8.6 47.4 69 3.2 37.7 9.01 0.355
07:51 1013 29.91 842 24.86 8.6 47.5 68 3.2 37.7 9.03 0.356
07:52 1013 29.91 842 24.86 8.7 47.6 68 3 37.4 9.03 0.356
07:53 1013 29.91 842 24.86 8.7 47.6 67 3 37.4 9.04 0.356
07:54 1013 29.91 842 24.86 8.7 47.6 67 3 37.4 9.12 0.359
07:55 1013 29.91 842 24.86 8.7 47.7 68 3.1 37.5 9.12 0.359
07:56 1013 29.91 842 24.86 8.7 47.7 68 3.1 37.6 9.15 0.36
07:57 1013 29.91 842 24.86 8.7 47.7 68 3.3 37.9 9.13 0.359
07:58 1013 29.91 842 24.86 8.7 47.7 68 3.1 37.6 9.1 0.358
07:59 1013 29.91 842 24.86 8.7 47.7 67 3.1 37.5 9.15 0.36
08:00 1013 29.91 842 24.86 8.7 47.7 67 3 37.4 9.13 0.359
08:01 1013 29.91 842 24.86 8.8 47.8 67 2.9 37.2 9.15 0.36
08:02 1013 29.91 842 24.86 8.8 47.8 67 3.1 37.6 9.2 0.362
08:03 1013 29.91 842 24.86 8.8 47.9 67 3.1 37.7 9.23 0.363
08:04 1013 29.91 842 24.86 8.9 47.9 68 3.3 38 9.24 0.364
08:05 1013 29.91 842 24.86 8.8 47.8 70 3.7 38.6 9.23 0.363
08:06 1013 29.91 842 24.86 8.8 47.8 69 3.5 38.4 9.19 0.362
08:07 1013 29.91 842 24.86 8.7 47.7 71 3.7 38.7 9.15 0.36
08:08 1013 29.91 842 24.86 8.7 47.7 71 3.7 38.7 9.13 0.359
08:09 1013 29.91 842 24.86 8.7 47.6 71 3.7 38.7 9.1 0.358
08:10 1013 29.91 842 24.86 8.7 47.6 71 3.7 38.7 9.11 0.359
08:11 1013 29.91 843 24.89 8.7 47.6 69 3.4 38.2 9.08 0.357
08:12 1013 29.91 843 24.89 8.7 47.6 71 3.8 38.9 9.11 0.359
08:13 1013 29.91 843 24.89 8.7 47.6 73 4.1 39.3 9.07 0.357
08:14 1013 29.91 843 24.89 8.6 47.6 72 3.9 39 9.1 0.358
08:15 1014 29.94 843 24.89 8.6 47.5 73 4.1 39.4 9.06 0.357
08:16 1014 29.94 843 24.89 8.6 47.5 72 3.9 39 9.07 0.357
08:17 1014 29.94 843 24.89 8.6 47.5 72 3.8 38.9 9.03 0.356
08:18 1014 29.94 843 24.89 8.7 47.6 70 3.5 38.4 9.06 0.357
08:19 1014 29.94 843 24.89 8.7 47.6 71 3.7 38.7 9.07 0.357
08:20 1014 29.94 843 24.89 8.7 47.6 72 3.9 39.1 9.1 0.358
08:21 1014 29.94 843 24.89 8.7 47.6 71 3.8 38.8 9.1 0.358
08:22 1014 29.94 843 24.89 8.7 47.7 71 3.9 39 9.1 0.358
08:23 1014 29.94 843 24.89 8.7 47.7 72 4.1 39.3 9.11 0.359
08:24 1014 29.94 843 24.89 8.7 47.7 74 4.3 39.7 9.1 0.358
08:25 1014 29.94 843 24.89 8.7 47.6 70 3.6 38.4 9.1 0.358
08:26 1014 29.94 843 24.89 8.8 47.8 71 3.8 38.8 9.1 0.358
08:27 1014 29.94 843 24.89 8.8 47.8 74 4.4 40 9.11 0.359
08:28 1014 29.94 843 24.89 8.7 47.6 74 4.3 39.7 9.06 0.357
08:29 1014 29.94 843 24.89 8.7 47.6 73 4.1 39.5 9.04 0.356
08:30 1013 29.91 843 24.89 8.7 47.7 73 4.2 39.6 9.04 0.356
08:31 1013 29.91 843 24.89 8.7 47.6 75 4.5 40.1 9.07 0.357
08:32 1013 29.91 842 24.86 8.6 47.5 74 4.2 39.5 9 0.354
08:33 1013 29.91 842 24.86 8.6 47.5 74 4.2 39.5 8.99 0.354
08:34 1013 29.91 842 24.86 8.7 47.6 74 4.2 39.6 9.04 0.356
08:35 1013 29.91 842 24.86 8.9 48 73 4.3 39.7 9.37 0.369
08:36 1013 29.91 842 24.86 9.3 48.7 72 4.4 40 9.61 0.378
08:37 1013 29.91 842 24.86 10 50 70 4.9 40.8 10.36 0.408
08:38 1013 29.91 842 24.86 11.5 52.7 63 4.8 40.6 11.88 0.468
08:39 1013 29.91 842 24.86 11.9 53.5 64 5.5 41.9 12.24 0.482
08:40 1013 29.91 842 24.86 11.7 53.1 67 5.8 42.5 11.93 0.47
08:41 1013 29.91 842 24.86 11.2 52.2 68 5.6 42 11.43 0.45
08:42 1013 29.91 842 24.86 10.9 51.7 70 5.7 42.2 11.22 0.442
08:43 1013 29.91 842 24.86 11.5 52.7 68 5.9 42.6 11.84 0.466
08:44 1013 29.91 842 24.86 12 53.5 69 6.4 43.5 12.23 0.481
08:45 1013 29.91 842 24.86 12.3 54.1 65 5.9 42.5 12.59 0.496
08:46 1013 29.91 842 24.86 12.7 54.9 64 6.1 42.9 12.99 0.511
08:47 1013 29.91 842 24.86 12.9 55.1 65 6.5 43.6 13.12 0.517
08:48 1013 29.91 842 24.86 13 55.4 63 6.3 43.3 13.29 0.523
08:49 1013 29.91 842 24.86 13.1 55.6 64 6.5 43.8 13.39 0.527
08:50 1013 29.91 842 24.86 13.1 55.6 64 6.6 43.9 13.35 0.526
08:51 1013 29.91 842 24.86 13 55.4 66 6.8 44.3 13.23 0.521
08:52 1013 29.91 842 24.86 12.7 54.9 65 6.4 43.6 12.98 0.511
08:53 1013 29.91 842 24.86 12.4 54.4 66 6.4 43.5 12.67 0.499
08:54 1013 29.91 842 24.86 12.1 53.8 67 6.3 43.3 12.39 0.488
08:55 1013 29.91 842 24.86 11.9 53.4 69 6.5 43.7 12.16 0.479
08:56 1013 29.91 842 24.86 11.7 53.1 71 6.6 43.9 12.06 0.475
08:57 1013 29.91 842 24.86 11.5 52.7 72 6.7 44 11.87 0.467
08:58 1013 29.91 842 24.86 11.3 52.3 71 6.3 43.4 11.61 0.457
08:59 1013 29.91 842 24.86 11.1 52.1 71 6.1 43 11.5 0.453
09:00 1013 29.91 842 24.86 11 51.9 72 6.2 43.2 11.39 0.448
09:01 1013 29.91 842 24.86 11 51.8 72 6.2 43.2 11.3 0.445
09:02 1013 29.91 842 24.86 10.9 51.6 72 6.1 42.9 11.34 0.446
09:03 1013 29.91 842 24.86 11 51.8 71 6 42.7 11.38 0.448
09:04 1013 29.91 842 24.86 11 51.9 69 5.7 42.2 11.44 0.45
09:05 1013 29.91 842 24.86 11.1 51.9 70 5.8 42.5 11.49 0.452
09:06 1013 29.91 842 24.86 11.2 52.1 68 5.4 41.7 11.57 0.456
09:07 1013 29.91 842 24.86 11.3 52.3 68 5.6 42.1 11.63 0.458
09:08 1013 29.91 842 24.86 11.4 52.4 66 5.3 41.5 11.76 0.463
09:09 1012 29.88 842 24.86 11.5 52.7 66 5.4 41.7 11.87 0.467
09:10 1012 29.88 842 24.86 11.6 52.9 69 6.1 43.1 12.01 0.473
09:11 1012 29.88 842 24.86 11.6 53 69 6.1 43 12.01 0.473
09:12 1012 29.88 841 24.83 11.8 53.2 68 6 42.8 12.14 0.478
09:13 1012 29.88 841 24.83 11.9 53.4 69 6.4 43.5 12.27 0.483
09:14 1012 29.88 841 24.83 12 53.5 66 5.9 42.7 12.34 0.486
09:15 1012 29.88 841 24.83 12.3 54.1 62 5.1 41.3 12.7 0.5
09:16 1012 29.88 841 24.83 12.8 55.1 63 6 42.8 13.18 0.519
09:17 1012 29.88 841 24.83 13 55.3 63 6.2 43.1 13.28 0.523
09:18 1012 29.88 841 24.83 13 55.4 63 6.2 43.1 13.33 0.525
09:19 1012 29.88 841 24.83 13 55.3 65 6.6 44 13.28 0.523
09:20 1012 29.88 841 24.83 12.9 55.2 65 6.6 43.9 13.26 0.522
09:21 1012 29.88 841 24.83 13 55.4 63 6.3 43.4 13.42 0.528
09:22 1012 29.88 841 24.83 13.2 55.7 60 5.7 42.3 13.51 0.532
09:23 1012 29.88 841 24.83 13.4 56 63 6.4 43.6 13.71 0.54
09:24 1012 29.88 841 24.83 13.6 56.5 61 6.3 43.3 13.97 0.55
09:25 1012 29.88 841 24.83 13.8 56.8 60 6.3 43.4 14.07 0.554
09:26 1012 29.88 841 24.83 13.8 56.8 61 6.4 43.6 14.16 0.557
09:27 1012 29.88 841 24.83 13.8 56.9 59 6 42.8 14.17 0.558
09:28 1012 29.88 841 24.83 13.9 57 59 6.2 43.1 14.25 0.561
09:29 1012 29.88 841 24.83 14 57.2 62 7 44.5 14.34 0.565
09:30 1012 29.88 841 24.83 14 57.1 66 7.7 45.8 14.38 0.566
09:31 1012 29.88 841 24.83 13.9 57.1 62 6.8 44.3 14.37 0.566
09:32 1012 29.88 841 24.83 14.1 57.4 61 6.8 44.3 14.54 0.572
09:33 1012 29.88 841 24.83 14.5 58.1 56 6 42.9 14.87 0.585
09:34 1012 29.88 841 24.83 14.9 58.8 61 7.5 45.5 15.19 0.598
09:35 1012 29.88 841 24.83 14.9 58.8 59 7.1 44.7 15.24 0.6
09:36 1012 29.88 841 24.83 14.8 58.6 61 7.3 45.2 15.19 0.598
09:37 1012 29.88 841 24.83 14.7 58.5 61 7.4 45.4 15.12 0.595
09:38 1012 29.88 841 24.83 14.6 58.2 63 7.6 45.7 14.97 0.589
09:39 1012 29.88 841 24.83 14.4 57.9 63 7.5 45.5 14.74 0.58
09:40 1012 29.88 841 24.83 14.2 57.6 65 7.8 46 14.5 0.571
09:41 1012 29.88 841 24.83 14 57.3 67 8.1 46.5 14.33 0.564
09:42 1012 29.88 841 24.83 13.9 57 66 7.7 45.8 14.27 0.562
09:43 1012 29.88 841 24.83 13.7 56.6 66 7.6 45.7 14.12 0.556
09:44 1012 29.88 841 24.83 13.6 56.4 63 6.8 44.2 14.01 0.552
09:45 1012 29.88 841 24.83 13.5 56.4 62 6.5 43.7 13.94 0.549
09:46 1012 29.88 841 24.83 13.5 56.3 66 7.4 45.4 13.92 0.548
09:47 1012 29.88 841 24.83 13.6 56.4 65 7.2 45 13.96 0.55
09:48 1012 29.88 841 24.83 13.5 56.4 64 6.9 44.5 13.91 0.548
09:49 1012 29.88 841 24.83 13.5 56.4 62 6.4 43.5 13.91 0.548
09:50 1012 29.88 841 24.83 13.7 56.7 60 6.1 43 14.09 0.555
09:51 1012 29.88 841 24.83 13.9 57 60 6.4 43.5 14.33 0.564
09:52 1012 29.88 841 24.83 14.1 57.3 62 6.9 44.4 14.52 0.572
09:53 1012 29.88 841 24.83 14.2 57.6 60 6.6 43.8 14.61 0.575
09:54 1012 29.88 841 24.83 14.3 57.7 61 6.9 44.4 14.65 0.577
09:55 1012 29.88 841 24.83 14.3 57.8 63 7.5 45.4 14.68 0.578
09:56 1012 29.88 841 24.83 14.3 57.7 61 6.9 44.3 14.62 0.576
09:57 1012 29.88 841 24.83 14.3 57.7 61 7 44.5 14.64 0.576
09:58 1012 29.88 841 24.83 14.3 57.7 63 7.5 45.5 14.69 0.578
09:59 1012 29.88 841 24.83 14.3 57.7 64 7.7 45.9 14.66 0.577
10:00 1012 29.88 841 24.83 14.3 57.7 66 8.1 46.5 14.6 0.575
10:01 1012 29.88 841 24.83 14.2 57.6 64 7.5 45.5 14.61 0.575
10:02 1012 29.88 841 24.83 14.3 57.7 66 8.1 46.6 14.61 0.575
10:03 1012 29.88 841 24.83 14.3 57.7 62 7.1 44.8 14.64 0.576
10:04 1012 29.88 841 24.83 14.3 57.8 63 7.5 45.5 14.76 0.581
10:05 1012 29.88 841 24.83 14.4 58 61 7.2 44.9 14.83 0.584
10:06 1012 29.88 841 24.83 14.6 58.2 63 7.6 45.7 14.97 0.589
10:07 1012 29.88 841 24.83 14.6 58.3 61 7.4 45.2 15.02 0.591
10:08 1012 29.88 841 24.83 14.6 58.4 65 8.1 46.6 15.05 0.593
10:09 1012 29.88 841 24.83 14.7 58.4 66 8.3 47 15.07 0.593
10:10 1012 29.88 841 24.83 14.7 58.4 64 8 46.4 15.13 0.596
10:11 1012 29.88 841 24.83 14.7 58.5 63 7.9 46.2 15.18 0.598
10:12 1012 29.88 841 24.83 14.8 58.7 58 6.6 43.9 15.23 0.6
10:13 1012 29.88 841 24.83 14.9 58.8 60 7.4 45.2 15.37 0.605
10:14 1012 29.88 841 24.83 15 59 62 7.9 46.3 15.4 0.606
10:15 1012 29.88 841 24.83 15 59.1 60 7.4 45.4 15.43 0.607
10:16 1012 29.88 841 24.83 15.1 59.1 59 7.2 44.9 15.46 0.609
10:17 1012 29.88 841 24.83 15.1 59.1 58 6.9 44.4 15.48 0.609
10:18 1012 29.88 842 24.86 15.1 59.1 60 7.5 45.4 15.48 0.609
10:19 1012 29.88 841 24.83 15 59.1 60 7.5 45.5 15.48 0.609
10:20 1012 29.88 842 24.86 15 59 60 7.4 45.3 15.5 0.61
10:21 1012 29.88 842 24.86 15 59.1 60 7.4 45.4 15.48 0.609
10:22 1012 29.88 842 24.86 15 59 60 7.4 45.4 15.48 0.609
10:23 1012 29.88 842 24.86 15.1 59.1 59 7.1 44.7 15.48 0.609
10:24 1012 29.88 842 24.86 15.1 59.2 59 7.2 44.9 15.55 0.612
10:25 1012 29.88 842 24.86 15.1 59.2 56 6.5 43.7 15.51 0.611
10:26 1012 29.88 842 24.86 15.1 59.3 57 6.8 44.3 15.55 0.612
10:27 1012 29.88 842 24.86 15.2 59.3 58 7 44.6 15.57 0.613
10:28 1012 29.88 842 24.86 15.2 59.4 59 7.3 45.2 15.6 0.614
10:29 1012 29.88 842 24.86 15.2 59.4 58 7.1 44.8 15.63 0.615
10:30 1012 29.88 842 24.86 15.3 59.5 56 6.7 44.1 15.66 0.617
10:31 1012 29.88 842 24.86 15.3 59.5 59 7.3 45.1 15.66 0.617
10:32 1012 29.88 842 24.86 15.3 59.5 58 7.2 44.9 15.64 0.616
10:33 1012 29.88 842 24.86 15.3 59.5 60 7.7 45.8 15.66 0.617
10:34 1012 29.88 842 24.86 15.3 59.5 54 6.1 42.9 15.67 0.617
10:35 1012 29.88 842 24.86 15.5 59.8 52 5.8 42.5 15.88 0.625
10:36 1012 29.88 842 24.86 15.6 60.1 53 6.1 42.9 16.05 0.632
10:37 1013 29.91 842 24.86 15.7 60.3 54 6.6 43.8 16.13 0.635
10:38 1012 29.88 842 24.86 15.8 60.4 56 7.2 45 16.19 0.637
10:39 1012 29.88 842 24.86 15.8 60.5 57 7.4 45.2 16.18 0.637
10:40 1013 29.91 842 24.86 15.8 60.5 56 7.2 44.9 16.17 0.637
10:41 1012 29.88 842 24.86 15.8 60.4 55 6.9 44.5 16.19 0.637
10:42 1012 29.88 842 24.86 15.8 60.5 55 6.9 44.5 16.21 0.638
10:43 1012 29.88 842 24.86 15.8 60.4 57 7.3 45.1 16.24 0.639
10:44 1012 29.88 842 24.86 15.8 60.5 58 7.8 46 16.28 0.641
10:45 1012 29.88 842 24.86 15.7 60.3 57 7.3 45.1 16.23 0.639
10:46 1012 29.88 842 24.86 15.7 60.2 56 6.9 44.5 16.2 0.638
10:47 1012 29.88 842 24.86 15.7 60.3 57 7.2 44.9 16.2 0.638
10:48 1012 29.88 842 24.86 15.8 60.4 59 7.8 46.1 16.27 0.641
10:49 1012 29.88 842 24.86 15.7 60.2 55 6.9 44.4 16.24 0.639
10:50 1012 29.88 842 24.86 15.7 60.3 52 5.9 42.6 16.21 0.638
10:51 1012 29.88 842 24.86 16.1 60.9 48 5.3 41.5 16.46 0.648
10:52 1012 29.88 842 24.86 16.5 61.6 49 5.7 42.3 16.83 0.663
10:53 1012 29.88 842 24.86 16.5 61.8 49 5.9 42.6 16.91 0.666
10:54 1012 29.88 841 24.83 16.5 61.8 53 7 44.6 16.94 0.667
10:55 1012 29.88 841 24.83 16.4 61.6 51 6.3 43.3 16.77 0.66
10:56 1012 29.88 841 24.83 16.3 61.4 55 7.3 45.2 16.69 0.657
10:57 1012 29.88 841 24.83 16.3 61.3 55 7.2 45 16.67 0.656
10:58 1012 29.88 841 24.83 16.2 61.2 53 6.7 44 16.64 0.655
10:59 1012 29.88 841 24.83 16.2 61.1 58 7.9 46.3 16.55 0.652
11:00 1012 29.88 841 24.83 16.1 60.9 56 7.4 45.2 16.49 0.649
11:01 1012 29.88 841 24.83 16 60.9 57 7.6 45.6 16.46 0.648
11:02 1012 29.88 841 24.83 16 60.7 57 7.5 45.5 16.38 0.645
11:03 1012 29.88 841 24.83 15.9 60.7 56 7.1 44.8 16.41 0.646
11:04 1012 29.88 841 24.83 15.9 60.7 58 7.9 46.2 16.38 0.645
11:05 1012 29.88 841 24.83 15.9 60.7 56 7.2 44.9 16.42 0.646
11:06 1012 29.88 841 24.83 16 60.8 56 7.3 45.2 16.49 0.649
11:07 1012 29.88 841 24.83 16.1 60.9 55 7.1 44.8 16.54 0.651
11:08 1012 29.88 841 24.83 16.2 61.1 56 7.6 45.6 16.63 0.655
11:09 1012 29.88 841 24.83 16.2 61.1 55 7.3 45.2 16.69 0.657
11:10 1012 29.88 841 24.83 16.3 61.3 56 7.5 45.6 16.72 0.658
11:11 1012 29.88 841 24.83 16.3 61.3 57 7.8 46.1 16.78 0.661
11:12 1012 29.88 841 24.83 16.4 61.4 57 8 46.4 16.83 0.663
11:13 1012 29.88 841 24.83 16.4 61.4 57 7.9 46.3 16.87 0.664
11:14 1012 29.88 841 24.83 16.3 61.4 58 8.1 46.5 16.86 0.664
11:15 1012 29.88 841 24.83 16.3 61.3 58 8.1 46.5 16.86 0.664
11:16 1012 29.88 841 24.83 16.3 61.3 62 9 48.3 16.87 0.664
11:17 1012 29.88 841 24.83 16.3 61.3 59 8.4 47.1 16.85 0.663
11:18 1012 29.88 841 24.83 16.4 61.4 58 8.1 46.5 16.9 0.665
11:19 1012 29.88 841 24.83 16.5 61.6 57 8.1 46.5 16.95 0.667
11:20 1012 29.88 841 24.83 16.5 61.7 56 7.9 46.2 17.03 0.67
11:21 1012 29.88 841 24.83 16.6 61.8 61 9 48.3 17.08 0.672
11:22 1012 29.88 841 24.83 16.6 61.9 54 7.4 45.3 17.06 0.672
11:23 1012 29.88 841 24.83 16.7 62 57 8.2 46.8 17.17 0.676
11:24 1012 29.88 841 24.83 16.7 62.1 59 8.7 47.6 17.22 0.678
11:25 1012 29.88 841 24.83 16.7 62.1 59 8.8 47.8 17.26 0.68
11:26 1012 29.88 841 24.83 16.8 62.2 55 7.8 46 17.33 0.682
11:27 1012 29.88 841 24.83 16.8 62.3 56 8.1 46.6 17.35 0.683
11:28 1012 29.88 841 24.83 16.8 62.3 58 8.7 47.6 17.36 0.683
11:29 1012 29.88 841 24.83 16.8 62.3 55 7.7 45.9 17.33 0.682
11:30 1012 29.88 841 24.83 16.8 62.2 55 7.8 46.1 17.25 0.679
11:31 1012 29.88 841 24.83 16.8 62.2 59 8.8 47.9 17.25 0.679
11:32 1012 29.88 841 24.83 16.7 62.1 58 8.5 47.3 17.22 0.678
11:33 1012 29.88 841 24.83 16.7 62.1 55 7.8 46 17.19 0.677
11:34 1012 29.88 841 24.83 16.8 62.2 56 7.9 46.3 17.22 0.678
11:35 1012 29.88 841 24.83 16.8 62.2 55 7.7 45.8 17.18 0.676
11:36 1012 29.88 841 24.83 16.8 62.2 55 7.9 46.2 17.2 0.677
11:37 1012 29.88 841 24.83 16.9 62.4 56 8 46.5 17.27 0.68
11:38 1012 29.88 841 24.83 17 62.6 55 8 46.5 17.39 0.685
11:39 1012 29.88 841 24.83 17.1 62.8 52 7.4 45.4 17.49 0.689
11:40 1012 29.88 841 24.83 17.2 63 53 7.7 45.8 17.61 0.693
11:41 1012 29.88 841 24.83 17.3 63.2 56 8.5 47.4 17.69 0.696
11:42 1012 29.88 841 24.83 17.4 63.3 54 8.1 46.5 17.81 0.701
11:43 1012 29.88 841 24.83 17.4 63.4 58 9.3 48.7 17.89 0.704
11:44 1012 29.88 841 24.83 17.4 63.4 56 8.7 47.7 17.94 0.706
11:45 1012 29.88 841 24.83 17.5 63.5 56 8.8 47.9 17.98 0.708
11:46 1012 29.88 841 24.83 17.6 63.8 62 10.5 50.9 18.15 0.715
11:47 1012 29.88 841 24.83 17.8 64.1 55 8.7 47.6 18.3 0.72
11:48 1012 29.88 841 24.83 17.9 64.2 54 8.4 47.2 18.3 0.72
11:49 1012 29.88 841 24.83 17.9 64.2 54 8.6 47.4 18.29 0.72
11:50 1012 29.88 841 24.83 17.9 64.2 54 8.6 47.4 18.33 0.722
11:51 1012 29.88 841 24.83 17.8 64.1 52 8.1 46.5 18.25 0.719
11:52 1012 29.88 841 24.83 17.8 64.1 58 9.5 49.1 18.27 0.719
11:53 1012 29.88 841 24.83 17.9 64.2 55 8.9 48.1 18.37 0.723
11:54 1012 29.88 841 24.83 18 64.4 57 9.5 49.1 18.53 0.73
11:55 1012 29.88 841 24.83 18.2 64.7 54 8.7 47.7 18.71 0.737
11:56 1012 29.88 841 24.83 18.3 65 55 9.2 48.5 18.91 0.744
11:57 1012 29.88 841 24.83 18.4 65.1 55 9.3 48.8 19 0.748
11:58 1012 29.88 841 24.83 18.6 65.4 48 7.5 45.4 19.16 0.754
11:59 1012 29.88 841 24.83 18.7 65.6 54 9.2 48.5 19.28 0.759
12:00 1012 29.88 841 24.83 18.9 66 56 10.1 50.2 19.47 0.767
12:01 1012 29.88 841 24.83 19 66.2 50 8.4 47.1 19.55 0.77
12:02 1012 29.88 841 24.83 19.1 66.3 50 8.6 47.4 19.66 0.774
12:03 1012 29.88 841 24.83 19.3 66.7 47 7.7 45.9 19.73 0.777
12:04 1012 29.88 841 24.83 19.4 66.9 44 7.1 44.7 19.83 0.781
12:05 1012 29.88 841 24.83 19.4 66.9 49 8.4 47.2 19.84 0.781
12:06 1012 29.88 841 24.83 19.3 66.7 50 8.6 47.5 19.74 0.777
12:07 1012 29.88 841 24.83 19.2 66.5 45 7.2 45 19.62 0.772
12:08 1012 29.88 841 24.83 19.2 66.5 50 8.7 47.6 19.63 0.773
12:09 1012 29.88 841 24.83 19.2 66.5 52 9.1 48.4 19.6 0.772
12:10 1012 29.88 841 24.83 19.2 66.5 52 9.2 48.5 19.6 0.772
12:11 1012 29.88 841 24.83 19.2 66.6 50 8.7 47.6 19.61 0.772
12:12 1012 29.88 841 24.83 19.3 66.7 50 8.7 47.6 19.69 0.775
12:13 1012 29.88 841 24.83 19.4 66.9 47 8 46.4 19.81 0.78
12:14 1012 29.88 841 24.83 19.5 67.1 45 7.4 45.4 19.92 0.784
12:15 1012 29.88 841 24.83 19.6 67.2 50 9 48.2 20.02 0.788
12:16 1012 29.88 841 24.83 19.7 67.4 51 9.3 48.8 20.12 0.792
12:17 1012 29.88 841 24.83 19.8 67.7 53 10 50 20.23 0.796
12:18 1012 29.88 841 24.83 19.9 67.9 47 8.3 47 20.37 0.802
12:19 1012 29.88 841 24.83 20 68 45 7.9 46.2 20.38 0.802
12:20 1012 29.88 841 24.83 19.9 67.9 46 8 46.5 20.29 0.799
12:21 1012 29.88 841 24.83 19.9 67.8 49 9.1 48.3 20.26 0.798
12:22 1012 29.88 841 24.83 19.9 67.7 45 7.6 45.6 20.24 0.797
12:23 1012 29.88 841 24.83 19.9 67.8 47 8.5 47.3 20.3 0.799
12:24 1012 29.88 841 24.83 19.9 67.8 45 7.7 45.8 20.29 0.799
12:25 1012 29.88 841 24.83 19.9 67.9 47 8.6 47.4 20.3 0.799
12:26 1012 29.88 841 24.83 19.9 67.9 46 8 46.4 20.32 0.8
12:27 1012 29.88 841 24.83 20 68 46 8.1 46.6 20.38 0.802
12:28 1012 29.88 841 24.83 20 67.9 49 8.9 48.1 20.38 0.802
12:29 1012 29.88 841 24.83 20 67.9 50 9.4 48.9 20.39 0.803
12:30 1012 29.88 841 24.83 20 67.9 51 9.7 49.5 20.42 0.804
12:31 1012 29.88 841 24.83 20 68 47 8.4 47.1 20.42 0.804
12:32 1012 29.88 841 24.83 20 68 47 8.4 47 20.45 0.805
12:33 1012 29.88 841 24.83 20.1 68.2 48 9 48.1 20.54 0.809
12:34 1012 29.88 841 24.83 20.1 68.3 45 8.1 46.6 20.58 0.81
12:35 1012 29.88 841 24.83 20.2 68.3 45 7.9 46.2 20.59 0.811
12:36 1012 29.88 841 24.83 20.2 68.4 50 9.5 49.1 20.63 0.812
12:37 1012 29.88 841 24.83 20.3 68.5 49 9.2 48.6 20.71 0.815
12:38 1012 29.88 841 24.83 20.3 68.6 48 9.2 48.5 20.72 0.816
12:39 1012 29.88 841 24.83 20.4 68.7 47 8.7 47.7 20.8 0.819
12:40 1012 29.88 841 24.83 20.5 68.9 45 8.3 46.9 20.88 0.822
12:41 1012 29.88 841 24.83 20.5 68.9 43 7.7 45.8 20.94 0.824
12:42 1012 29.88 841 24.83 20.5 68.9 46 8.7 47.7 20.95 0.825
12:43 1012 29.88 841 24.83 20.6 69 47 8.9 48 21 0.827
12:44 1012 29.88 841 24.83 20.5 69 46 8.6 47.5 20.96 0.825
12:45 1012 29.88 841 24.83 20.6 69 44 8.1 46.6 21 0.827
12:46 1012 29.88 841 24.83 20.6 69.1 45 8.5 47.3 21.06 0.829
12:47 1012 29.88 841 24.83 20.7 69.2 40 6.8 44.3 21.05 0.829
12:48 1012 29.88 841 24.83 20.6 69.1 49 9.6 49.3 21.01 0.827
12:49 1012 29.88 841 24.83 20.6 69 50 10 50 20.99 0.826
12:50 1012 29.88 841 24.83 20.7 69.2 48 9.3 48.8 21.08 0.83
12:51 1012 29.88 841 24.83 20.9 69.5 44 8.1 46.7 21.28 0.838
12:52 1012 29.88 841 24.83 20.9 69.6 49 9.8 49.6 21.28 0.838
12:53 1012 29.88 841 24.83 20.9 69.6 45 8.5 47.4 21.3 0.839
12:54 1012 29.88 841 24.83 21 69.7 45 8.7 47.6 21.41 0.843
12:55 1012 29.88 841 24.83 21.1 70 42 8 46.5 21.55 0.848
12:56 1012 29.88 841 24.83 21.3 70.4 43 8.5 47.4 21.71 0.855
12:57 1012 29.88 841 24.83 21.6 70.8 46 9.5 49.1 22 0.866
12:58 1012 29.88 841 24.83 21.7 71 41 8.1 46.5 22.09 0.87
12:59 1012 29.88 841 24.83 21.5 70.8 42 8.3 46.9 21.91 0.863
13:00 1012 29.88 841 24.83 21.5 70.6 38 6.7 44.1 21.84 0.86
13:01 1012 29.88 841 24.83 21.3 70.3 43 8.4 47.1 21.67 0.853
13:02 1012 29.88 841 24.83 21.1 69.9 45 8.7 47.6 21.44 0.844
13:03 1012 29.88 841 24.83 20.8 69.5 41 7.1 44.7 21.19 0.834
13:04 1012 29.88 841 24.83 20.7 69.2 41 7.1 44.8 21.06 0.829
13:05 1012 29.88 841 24.83 20.5 68.9 43 7.6 45.7 20.94 0.824
13:06 1012 29.88 841 24.83 20.4 68.8 45 8.2 46.8 20.84 0.82
13:07 1012 29.88 841 24.83 20.3 68.6 45 8.2 46.8 20.78 0.818
13:08 1011 29.85 841 24.83 20.4 68.7 43 7.7 45.8 20.79 0.819
13:09 1012 29.88 841 24.83 20.5 69 44 8.1 46.5 20.96 0.825
13:10 1011 29.85 841 24.83 20.8 69.5 42 7.7 45.9 21.22 0.835
13:11 1011 29.85 841 24.83 20.9 69.7 40 7.1 44.7 21.33 0.84
13:12 1011 29.85 841 24.83 21 69.7 43 8 46.3 21.31 0.839
13:13 1011 29.85 841 24.83 20.9 69.6 45 8.7 47.6 21.3 0.839
13:14 1011 29.85 841 24.83 20.8 69.5 45 8.7 47.6 21.19 0.834
13:15 1011 29.85 841 24.83 20.7 69.2 43 7.9 46.2 21.08 0.83
13:16 1011 29.85 841 24.83 20.6 69 44 8 46.4 21.04 0.828
13:17 1011 29.85 841 24.83 20.7 69.3 43 8 46.3 21.13 0.832
13:18 1011 29.85 841 24.83 20.9 69.6 45 8.7 47.6 21.32 0.839
13:19 1011 29.85 841 24.83 21.2 70.1 39 6.9 44.4 21.6 0.85
13:20 1011 29.85 841 24.83 21.3 70.3 43 8.3 46.9 21.72 0.855
13:21 1011 29.85 841 24.83 21.4 70.5 38 6.8 44.3 21.81 0.859
13:22 1011 29.85 841 24.83 21.3 70.4 41 7.7 45.8 21.68 0.854
13:23 1011 29.85 841 24.83 21.2 70.1 42 8 46.4 21.57 0.849
13:24 1011 29.85 841 24.83 21 69.8 41 7.2 45 21.43 0.844
13:25 1011 29.85 841 24.83 20.8 69.5 45 8.6 47.4 21.25 0.837
13:26 1011 29.85 841 24.83 20.7 69.3 41 7.2 45 21.12 0.831
13:27 1011 29.85 841 24.83 20.7 69.2 41 7.2 45 21.05 0.829
13:28 1011 29.85 841 24.83 20.7 69.2 46 8.9 48 21.08 0.83
13:29 1011 29.85 841 24.83 20.7 69.3 40 6.9 44.4 21.11 0.831
13:30 1011 29.85 841 24.83 20.8 69.5 48 9.5 49.1 21.26 0.837
13:31 1011 29.85 841 24.83 21.1 70 44 8.7 47.6 21.49 0.846
13:32 1011 29.85 841 24.83 21.3 70.3 49 10.2 50.3 21.66 0.853
13:33 1011 29.85 841 24.83 21.4 70.4 40 7.5 45.5 21.71 0.855
13:34 1011 29.85 841 24.83 21.3 70.3 40 7.2 45 21.7 0.854
13:35 1011 29.85 841 24.83 21.3 70.3 43 8.2 46.8 21.67 0.853
13:36 1011 29.85 841 24.83 21.2 70.2 43 8.4 47.1 21.65 0.852
13:37 1011 29.85 841 24.83 21.3 70.3 44 8.6 47.4 21.65 0.852
13:38 1011 29.85 841 24.83 21.3 70.3 45 9 48.2 21.69 0.854
13:39 1011 29.85 841 24.83 21.3 70.4 42 8.1 46.6 21.76 0.857
13:40 1011 29.85 841 24.83 21.3 70.4 46 9.4 48.9 21.75 0.856
13:41 1011 29.85 841 24.83 21.3 70.4 44 8.7 47.6 21.72 0.855
13:42 1011 29.85 841 24.83 21.3 70.4 44 8.6 47.4 21.69 0.854
13:43 1011 29.85 841 24.83 21.2 70.1 45 8.9 48.1 21.57 0.849
13:44 1011 29.85 841 24.83 21.1 70 42 7.8 46 21.46 0.845
13:45 1011 29.85 841 24.83 21 69.7 43 8.1 46.5 21.37 0.841
13:46 1011 29.85 841 24.83 20.9 69.6 40 6.9 44.5 21.25 0.837
13:47 1011 29.85 841 24.83 20.8 69.5 41 7.3 45.2 21.21 0.835
13:48 1011 29.85 841 24.83 20.8 69.4 44 8.3 46.9 21.19 0.834
13:49 1011 29.85 841 24.83 20.8 69.4 44 8.2 46.8 21.15 0.833
13:50 1011 29.85 841 24.83 20.7 69.3 41 7 44.7 21.13 0.832
13:51 1011 29.85 841 24.83 20.7 69.3 45 8.5 47.4 21.11 0.831
13:52 1011 29.85 841 24.83 20.8 69.4 41 7.3 45.2 21.18 0.834
13:53 1011 29.85 841 24.83 20.9 69.6 45 8.6 47.5 21.28 0.838
13:54 1011 29.85 841 24.83 21 69.7 45 8.8 47.8 21.4 0.843
13:55 1011 29.85 841 24.83 21.1 69.9 44 8.6 47.4 21.5 0.846
13:56 1011 29.85 841 24.83 21.1 70 44 8.7 47.7 21.52 0.847
13:57 1011 29.85 841 24.83 21.2 70.1 42 8 46.4 21.57 0.849
13:58 1011 29.85 841 24.83 21.3 70.3 45 9 48.3 21.69 0.854
13:59 1011 29.85 840 24.81 21.3 70.4 41 7.8 46 21.75 0.856
14:00 1011 29.85 841 24.83 21.4 70.4 44 8.8 47.8 21.75 0.856
14:01 1011 29.85 840 24.81 21.3 70.3 42 8.1 46.6 21.69 0.854
14:02 1011 29.85 840 24.81 21.2 70.2 43 8.5 47.2 21.65 0.852
14:03 1011 29.85 840 24.81 21.2 70.1 42 7.8 46.1 21.53 0.848
14:04 1011 29.85 840 24.81 21.1 69.9 40 7.1 44.9 21.42 0.843
14:05 1011 29.85 840 24.81 20.9 69.7 42 7.6 45.7 21.32 0.839
14:06 1011 29.85 840 24.81 20.9 69.6 41 7.4 45.3 21.28 0.838
14:07 1011 29.85 840 24.81 20.9 69.6 42 7.8 46 21.27 0.837
14:08 1011 29.85 840 24.81 20.9 69.6 43 8 46.4 21.29 0.838
14:09 1011 29.85 840 24.81 20.9 69.6 44 8.5 47.3 21.29 0.838
14:10 1011 29.85 840 24.81 20.9 69.5 44 8.3 46.9 21.29 0.838
14:11 1011 29.85 840 24.81 20.9 69.6 42 7.5 45.6 21.28 0.838
14:12 1011 29.85 840 24.81 20.8 69.4 46 8.9 48 21.25 0.837
14:13 1011 29.85 840 24.81 20.7 69.3 44 8.3 46.9 21.14 0.832
14:14 1011 29.85 840 24.81 20.6 69.1 44 8.2 46.7 21.04 0.828
14:15 1011 29.85 840 24.81 20.6 69.1 44 7.9 46.3 20.99 0.826
14:16 1011 29.85 840 24.81 20.5 69 43 7.6 45.8 20.91 0.823
14:17 1011 29.85 840 24.81 20.4 68.7 45 8.4 47 20.82 0.82
14:18 1011 29.85 840 24.81 20.3 68.6 41 6.6 44 20.74 0.817
14:19 1011 29.85 840 24.81 20.3 68.5 42 7.3 45.1 20.71 0.815
14:20 1011 29.85 840 24.81 20.3 68.5 42 6.9 44.5 20.63 0.812
14:21 1011 29.85 840 24.81 20.2 68.4 42 7 44.7 20.59 0.811
14:22 1011 29.85 840 24.81 20.2 68.3 39 6 42.9 20.54 0.809
14:23 1011 29.85 840 24.81 20.2 68.3 44 7.7 45.9 20.62 0.812
14:24 1011 29.85 840 24.81 20 68.1 45 7.8 46.1 20.46 0.806
14:25 1011 29.85 840 24.81 19.9 67.9 42 6.9 44.4 20.33 0.8
14:26 1011 29.85 840 24.81 19.8 67.7 44 7.5 45.5 20.25 0.797
14:27 1011 29.85 840 24.81 19.7 67.4 48 8.4 47.1 20.1 0.791
14:28 1011 29.85 840 24.81 19.5 67 49 8.5 47.3 19.9 0.783
14:29 1011 29.85 840 24.81 19.3 66.8 51 9 48.3 19.75 0.778
14:30 1011 29.85 840 24.81 19.2 66.5 47 7.9 46.2 19.63 0.773
14:31 1011 29.85 840 24.81 19.2 66.5 49 8.3 47 19.58 0.771
14:32 1011 29.85 840 24.81 19.1 66.4 50 8.6 47.5 19.52 0.769
14:33 1011 29.85 840 24.81 19 66.1 52 9.1 48.3 19.4 0.764
14:34 1011 29.85 840 24.81 18.9 66 49 8.2 46.8 19.3 0.76
14:35 1011 29.85 840 24.81 18.9 65.9 50 8.4 47.1 19.27 0.759
14:36 1011 29.85 840 24.81 18.8 65.9 51 8.6 47.5 19.19 0.756
14:37 1011 29.85 840 24.81 18.7 65.7 52 8.9 48 19.16 0.754
14:38 1011 29.85 840 24.81 18.6 65.5 51 8.4 47.1 19.08 0.751
14:39 1011 29.85 840 24.81 18.5 65.4 52 8.7 47.6 18.93 0.745
14:40 1011 29.85 840 24.81 18.5 65.2 54 9 48.2 18.86 0.743
14:41 1011 29.85 840 24.81 18.3 65 56 9.5 49.1 18.74 0.738
14:42 1011 29.85 840 24.81 18.1 64.6 57 9.5 49.1 18.57 0.731
14:43 1011 29.85 840 24.81 18 64.3 58 9.6 49.3 18.4 0.724
14:44 1011 29.85 840 24.81 17.8 64 58 9.6 49.3 18.23 0.718
14:45 1011 29.85 841 24.83 17.7 63.9 57 9.3 48.8 18.11 0.713
14:46 1011 29.85 841 24.83 17.7 63.8 52 7.8 46.1 18.08 0.712
14:47 1011 29.85 841 24.83 17.8 64 53 8.1 46.5 18.14 0.714
14:48 1011 29.85 841 24.83 17.7 63.9 53 8.2 46.7 18.05 0.711
14:49 1012 29.88 841 24.83 17.5 63.4 55 8.4 47.1 17.84 0.702
14:50 1012 29.88 841 24.83 17.2 62.9 52 7.3 45.2 17.58 0.692
14:51 1012 29.88 841 24.83 17.2 63 49 6.6 43.8 17.48 0.688
14:52 1012 29.88 841 24.83 17.3 63.1 54 8 46.4 17.57 0.692
14:53 1012 29.88 841 24.83 17 62.7 54 7.8 46.1 17.32 0.682
14:54 1012 29.88 841 24.83 16.8 62.2 52 7 44.6 17.1 0.673
14:55 1012 29.88 841 24.83 16.9 62.3 50 6.6 43.9 17.14 0.675
14:56 1012 29.88 841 24.83 16.9 62.5 55 8 46.3 17.27 0.68
14:57 1012 29.88 841 24.83 16.9 62.4 54 7.6 45.7 17.26 0.68
14:58 1012 29.88 841 24.83 17.1 62.8 51 7 44.5 17.45 0.687
14:59 1012 29.88 841 24.83 17.4 63.2 52 7.5 45.6 17.7 0.697
15:00 1012 29.88 841 24.83 17.4 63.3 58 9.1 48.3 17.74 0.698
15:01 1012 29.88 841 24.83 17.1 62.7 61 9.5 49.1 17.52 0.69
15:02 1012 29.88 841 24.83 16.8 62.2 59 8.7 47.7 17.19 0.677
15:03 1012 29.88 841 24.83 16.6 61.9 61 9.1 48.4 17 0.669
15:04 1012 29.88 842 24.86 16.4 61.4 64 9.5 49.2 16.81 0.662
15:05 1012 29.88 842 24.86 16.1 60.9 65 9.5 49.1 16.53 0.651
15:06 1012 29.88 841 24.83 15.8 60.5 67 9.7 49.5 16.3 0.642
15:07 1012 29.88 841 24.83 15.7 60.2 61 8.3 47 16.04 0.631
15:08 1012 29.88 841 24.83 15.7 60.3 60 8 46.5 16.07 0.633
15:09 1012 29.88 841 24.83 15.9 60.7 57 7.5 45.5 16.22 0.639
15:10 1012 29.88 841 24.83 15.9 60.7 64 9.3 48.7 16.26 0.64
15:11 1012 29.88 841 24.83 15.6 60.1 66 9.4 48.9 16.06 0.632
15:12 1012 29.88 841 24.83 15.3 59.6 70 9.8 49.7 15.82 0.623
15:13 1012 29.88 841 24.83 15.1 59.2 70 9.8 49.6 15.58 0.613
15:14 1012 29.88 841 24.83 15 58.9 71 9.9 49.8 15.43 0.607
15:15 1011 29.85 841 24.83 14.9 58.9 71 9.8 49.6 15.4 0.606
15:16 1011 29.85 841 24.83 15 58.9 70 9.7 49.4 15.42 0.607
15:17 1011 29.85 841 24.83 15.1 59.2 70 9.8 49.6 15.52 0.611
15:18 1011 29.85 841 24.83 15.2 59.4 72 10.4 50.7 15.68 0.617
15:19 1011 29.85 841 24.83 15.4 59.8 71 10.2 50.4 15.87 0.625
15:20 1011 29.85 841 24.83 15.6 60 76 11.4 52.6 16.06 0.632
15:21 1011 29.85 841 24.83 15.8 60.4 75 11.5 52.7 16.29 0.641
15:22 1011 29.85 841 24.83 15.9 60.6 74 11.4 52.4 16.36 0.644
15:23 1011 29.85 841 24.83 16.1 60.9 76 11.9 53.3 16.57 0.652
15:24 1011 29.85 841 24.83 16.1 61.1 69 10.5 50.8 16.61 0.654
15:25 1011 29.85 841 24.83 16.2 61.2 75 11.8 53.2 16.7 0.657
15:26 1011 29.85 841 24.83 16.3 61.3 69 10.6 51 16.82 0.662
15:27 1011 29.85 841 24.83 16.4 61.6 72 11.4 52.6 16.87 0.664
15:28 1011 29.85 841 24.83 16.5 61.6 65 9.9 49.8 16.91 0.666
15:29 1011 29.85 841 24.83 16.5 61.7 68 10.6 51.2 16.89 0.665
15:30 1011 29.85 841 24.83 16.5 61.6 69 10.7 51.3 16.89 0.665
15:31 1011 29.85 841 24.83 16.4 61.5 70 10.9 51.6 16.83 0.663
15:32 1011 29.85 841 24.83 16.4 61.6 69 10.9 51.6 16.85 0.663
15:33 1011 29.85 841 24.83 16.4 61.6 70 11 51.8 16.84 0.663
15:34 1011 29.85 840 24.81 16.5 61.7 69 10.8 51.5 16.97 0.668
15:35 1011 29.85 840 24.81 16.6 61.8 69 10.9 51.5 16.97 0.668
15:36 1011 29.85 840 24.81 16.7 62 69 10.9 51.7 17.09 0.673
15:37 1011 29.85 840 24.81 16.7 62.1 70 11.4 52.5 17.16 0.676
15:38 1011 29.85 840 24.81 16.7 62.1 69 11.1 52.1 17.21 0.678
15:39 1011 29.85 840 24.81 16.8 62.2 71 11.6 52.9 17.26 0.68
15:40 1011 29.85 840 24.81 16.8 62.3 69 11.2 52.1 17.32 0.682
15:41 1011 29.85 840 24.81 16.8 62.3 70 11.4 52.5 17.35 0.683
15:42 1011 29.85 840 24.81 16.9 62.4 68 11.1 52 17.42 0.686
15:43 1011 29.85 840 24.81 17 62.6 69 11.4 52.5 17.5 0.689
15:44 1011 29.85 840 24.81 17.1 62.7 67 11 51.7 17.55 0.691
15:45 1011 29.85 840 24.81 17.1 62.8 65 10.5 50.8 17.6 0.693
15:46 1011 29.85 840 24.81 17.2 62.9 69 11.5 52.6 17.68 0.696
15:47 1011 29.85 840 24.81 17.2 63 64 10.4 50.7 17.69 0.696
15:48 1011 29.85 840 24.81 17.3 63.2 65 10.7 51.3 17.77 0.7
15:49 1011 29.85 840 24.81 17.4 63.4 65 10.8 51.4 17.85 0.703
15:50 1011 29.85 840 24.81 17.5 63.5 65 10.9 51.7 17.98 0.708
15:51 1011 29.85 840 24.81 17.6 63.7 64 10.7 51.3 18.01 0.709
15:52 1011 29.85 840 24.81 17.7 63.8 61 10.2 50.4 18.03 0.71
15:53 1011 29.85 840 24.81 17.6 63.6 62 10.3 50.6 18.02 0.709
15:54 1011 29.85 840 24.81 17.6 63.6 62 10.2 50.3 17.93 0.706
15:55 1011 29.85 840 24.81 17.5 63.6 63 10.5 50.8 17.91 0.705
15:56 1011 29.85 840 24.81 17.5 63.5 63 10.6 51.1 17.86 0.703
15:57 1011 29.85 840 24.81 17.5 63.5 63 10.6 51 17.9 0.705
15:58 1011 29.85 840 24.81 17.6 63.6 65 11.1 51.9 17.98 0.708
15:59 1011 29.85 840 24.81 17.6 63.7 65 11.1 52 17.98 0.708
16:00 1011 29.85 840 24.81 17.6 63.7 64 10.8 51.4 17.99 0.708
16:01 1011 29.85 840 24.81 17.6 63.7 63 10.6 51.1 18.01 0.709
16:02 1011 29.85 840 24.81 17.5 63.4 61 10 49.9 17.77 0.7
16:03 1011 29.85 840 24.81 17.2 63 66 10.8 51.5 17.51 0.689
16:04 1011 29.85 840 24.81 17 62.6 64 10.3 50.5 17.36 0.683
16:05 1011 29.85 840 24.81 16.8 62.3 65 10.3 50.5 17.24 0.679
16:06 1011 29.85 840 24.81 16.8 62.2 61 9.3 48.7 17.2 0.677
16:07 1011 29.85 840 24.81 16.8 62.2 66 10.3 50.6 17.13 0.674
16:08 1011 29.85 840 24.81 16.7 62 61 9.1 48.4 17.08 0.672
16:09 1011 29.85 840 24.81 16.7 62 60 8.9 48 17.07 0.672
16:10 1011 29.85 840 24.81 16.7 62.1 63 9.6 49.4 17.09 0.673
16:11 1011 29.85 840 24.81 16.7 62 61 9.2 48.5 17.03 0.67
16:12 1011 29.85 840 24.81 16.6 61.9 61 9.1 48.4 16.97 0.668
16:13 1011 29.85 840 24.81 16.6 61.9 63 9.6 49.2 16.92 0.666
16:14 1011 29.85 840 24.81 16.5 61.7 63 9.5 49.1 16.83 0.663
16:15 1011 29.85 840 24.81 16.5 61.6 62 9.3 48.7 16.82 0.662
16:16 1011 29.85 840 24.81 16.4 61.6 63 9.4 48.9 16.81 0.662
16:17 1011 29.85 840 24.81 16.4 61.6 63 9.5 49.2 16.79 0.661
16:18 1011 29.85 840 24.81 16.4 61.5 62 9.2 48.5 16.73 0.659
16:19 1011 29.85 840 24.81 16.3 61.4 63 9.4 49 16.73 0.659
16:20 1011 29.85 840 24.81 16.3 61.4 61 8.9 48 16.7 0.657
16:21 1011 29.85 840 24.81 16.3 61.3 63 9.3 48.7 16.68 0.657
16:22 1011 29.85 840 24.81 16.3 61.4 63 9.3 48.8 16.68 0.657
16:23 1011 29.85 840 24.81 16.3 61.3 63 9.4 48.9 16.67 0.656
16:24 1011 29.85 840 24.81 16.3 61.3 63 9.3 48.7 16.67 0.656
16:25 1011 29.85 840 24.81 16.3 61.3 63 9.2 48.6 16.67 0.656
16:26 1011 29.85 840 24.81 16.3 61.3 64 9.6 49.4 16.67 0.656
16:27 1011 29.85 840 24.81 16.2 61.2 62 9 48.3 16.62 0.654
16:28 1011 29.85 840 24.81 16.2 61.2 65 9.6 49.3 16.62 0.654
16:29 1011 29.85 840 24.81 16.2 61.1 64 9.4 49 16.55 0.652
16:30 1011 29.85 840 24.81 16.2 61.1 64 9.4 48.9 16.53 0.651
16:31 1011 29.85 840 24.81 16.1 61.1 64 9.4 48.8 16.53 0.651
16:32 1011 29.85 840 24.81 16.2 61.1 64 9.4 48.9 16.57 0.652
16:33 1011 29.85 840 24.81 16.2 61.2 64 9.4 48.9 16.59 0.653
16:34 1011 29.85 840 24.81 16.2 61.2 64 9.4 48.9 16.55 0.652
16:35 1011 29.85 840 24.81 16.1 61.1 65 9.7 49.5 16.5 0.65
16:36 1011 29.85 840 24.81 16.1 61 65 9.6 49.2 16.49 0.649
16:37 1011 29.85 840 24.81 16.1 60.9 65 9.5 49.1 16.45 0.648
16:38 1011 29.85 840 24.81 16.1 60.9 65 9.6 49.4 16.47 0.648
16:39 1011 29.85 840 24.81 16 60.8 65 9.6 49.3 16.41 0.646
16:40 1011 29.85 840 24.81 16 60.8 65 9.5 49 16.42 0.646
16:41 1011 29.85 840 24.81 16 60.8 66 9.8 49.6 16.41 0.646
16:42 1011 29.85 840 24.81 16 60.8 67 9.9 49.7 16.39 0.645
16:43 1011 29.85 840 24.81 16 60.7 68 10.1 50.1 16.36 0.644
16:44 1011 29.85 840 24.81 15.9 60.7 67 9.8 49.7 16.29 0.641
16:45 1011 29.85 840 24.81 15.9 60.6 66 9.6 49.3 16.26 0.64
16:46 1011 29.85 840 24.81 15.9 60.6 67 9.8 49.7 16.29 0.641
16:47 1011 29.85 840 24.81 15.9 60.6 66 9.7 49.5 16.27 0.641
16:48 1011 29.85 840 24.81 15.9 60.6 66 9.6 49.3 16.24 0.639
16:49 1011 29.85 840 24.81 15.9 60.6 66 9.5 49.1 16.3 0.642
16:50 1011 29.85 840 24.81 16 60.7 67 9.8 49.6 16.33 0.643
16:51 1011 29.85 840 24.81 15.9 60.7 66 9.7 49.5 16.27 0.641
16:52 1011 29.85 840 24.81 15.9 60.6 65 9.4 49 16.29 0.641
16:53 1011 29.85 840 24.81 15.9 60.5 67 9.7 49.5 16.27 0.641
16:54 1011 29.85 840 24.81 15.9 60.6 66 9.6 49.3 16.26 0.64
16:55 1011 29.85 840 24.81 15.9 60.5 66 9.5 49.2 16.23 0.639
16:56 1011 29.85 840 24.81 15.8 60.5 66 9.6 49.2 16.22 0.639
16:57 1011 29.85 840 24.81 15.8 60.5 66 9.6 49.2 16.19 0.637
16:58 1011 29.85 840 24.81 15.8 60.5 66 9.5 49.1 16.22 0.639
16:59 1011 29.85 840 24.81 15.8 60.5 67 9.7 49.5 16.2 0.638
17:00 1011 29.85 841 24.83 15.8 60.4 66 9.6 49.3 16.18 0.637
17:01 1011 29.85 841 24.83 15.7 60.3 68 9.8 49.6 16.1 0.634
17:02 1011 29.85 841 24.83 15.7 60.2 67 9.5 49.2 16.04 0.631
17:03 1011 29.85 841 24.83 15.7 60.2 67 9.7 49.4 16.02 0.631
17:04 1012 29.88 841 24.83 15.7 60.2 67 9.6 49.2 16.04 0.631
17:05 1012 29.88 841 24.83 15.7 60.2 68 9.8 49.7 16.07 0.633
17:06 1012 29.88 841 24.83 15.6 60.1 69 9.9 49.9 15.97 0.629
17:07 1012 29.88 841 24.83 15.5 59.9 68 9.7 49.5 15.89 0.626
17:08 1012 29.88 841 24.83 15.5 59.9 68 9.8 49.6 15.84 0.624
17:09 1012 29.88 841 24.83 15.4 59.7 69 9.7 49.5 15.81 0.622
17:10 1012 29.88 841 24.83 15.4 59.7 70 10 49.9 15.76 0.62
17:11 1012 29.88 841 24.83 15.3 59.6 70 10 50 15.7 0.618
17:12 1012 29.88 841 24.83 15.2 59.3 75 10.7 51.3 15.6 0.614
17:13 1012 29.88 841 24.83 14.9 58.8 75 10.5 51 15.27 0.601
17:14 1012 29.88 841 24.83 14.7 58.4 76 10.6 51.1 15.11 0.595
17:15 1012 29.88 842 24.86 14.5 58.1 78 10.7 51.3 14.95 0.589
17:16 1012 29.88 842 24.86 14.4 57.9 70 9 48.2 14.77 0.581
17:17 1012 29.88 841 24.83 14.5 58.1 71 9.3 48.8 14.84 0.584
17:18 1012 29.88 842 24.86 14.5 58.1 66 8.3 47 14.86 0.585
17:19 1012 29.88 841 24.83 14.7 58.5 65 8.2 46.8 15.02 0.591
17:20 1012 29.88 842 24.86 14.9 58.8 69 9.4 48.9 15.19 0.598
17:21 1012 29.88 842 24.86 14.6 58.3 70 9.2 48.6 14.99 0.59
17:22 1013 29.91 842 24.86 14.3 57.8 72 9.4 48.9 14.72 0.58
17:23 1013 29.91 842 24.86 14 57.2 76 10 49.9 14.44 0.569
17:24 1013 29.91 842 24.86 13.6 56.4 79 10 50 13.99 0.551
17:25 1013 29.91 842 24.86 13 55.5 79 9.5 49.2 13.51 0.532
17:26 1013 29.91 842 24.86 12.6 54.8 82 9.7 49.5 13.12 0.517
17:27 1013 29.91 842 24.86 12.4 54.3 84 9.7 49.5 12.86 0.506
17:28 1013 29.91 842 24.86 12.1 53.9 83 9.3 48.8 12.6 0.496
17:29 1013 29.91 842 24.86 12 53.6 84 9.4 48.9 12.47 0.491
17:30 1013 29.91 842 24.86 11.9 53.3 86 9.6 49.2 12.34 0.486
17:31 1013 29.91 842 24.86 11.8 53.2 86 9.5 49.2 12.16 0.479
17:32 1013 29.91 842 24.86 11.6 52.9 87 9.5 49.1 12.04 0.474
17:33 1013 29.91 842 24.86 11.6 52.8 87 9.5 49.1 11.99 0.472
17:34 1013 29.91 842 24.86 11.5 52.7 88 9.6 49.2 11.93 0.47
17:35 1013 29.91 842 24.86 11.4 52.6 88 9.5 49 11.86 0.467
17:36 1013 29.91 842 24.86 11.4 52.6 87 9.4 49 11.83 0.466
17:37 1013 29.91 842 24.86 11.5 52.6 87 9.3 48.8 11.84 0.466
17:38 1013 29.91 843 24.89 11.5 52.6 86 9.3 48.7 11.82 0.465
17:39 1013 29.91 843 24.89 11.4 52.6 86 9.3 48.7 11.85 0.467
17:40 1013 29.91 843 24.89 11.4 52.6 86 9.2 48.6 11.8 0.465
17:41 1013 29.91 843 24.89 11.4 52.5 86 9.2 48.6 11.77 0.463
17:42 1013 29.91 843 24.89 11.4 52.5 87 9.3 48.7 11.76 0.463
17:43 1013 29.91 843 24.89 11.3 52.4 87 9.2 48.5 11.73 0.462
17:44 1013 29.91 842 24.86 11.3 52.4 86 9.1 48.4 11.66 0.459
17:45 1013 29.91 842 24.86 11.3 52.3 87 9.2 48.6 11.7 0.461
17:46 1013 29.91 842 24.86 11.3 52.4 87 9.3 48.7 11.67 0.459
17:47 1013 29.91 842 24.86 11.2 52.2 87 9.1 48.5 11.67 0.459
17:48 1012 29.88 842 24.86 11.2 52.2 88 9.3 48.7 11.61 0.457
17:49 1012 29.88 841 24.83 11.2 52.1 88 9.3 48.8 11.59 0.456
17:50 1012 29.88 841 24.83 11.2 52.1 88 9.3 48.7 11.52 0.454
17:51 1012 29.88 841 24.83 11.1 52 89 9.3 48.7 11.5 0.453
17:52 1012 29.88 841 24.83 11.1 51.9 88 9.2 48.5 11.47 0.452
17:53 1012 29.88 841 24.83 11.1 52 87 9.1 48.4 11.49 0.452
17:54 1012 29.88 841 24.83 11.2 52.2 87 9.2 48.6 11.56 0.455
17:55 1012 29.88 841 24.83 11.3 52.3 88 9.3 48.7 11.61 0.457
17:56 1012 29.88 842 24.86 11.3 52.3 88 9.3 48.7 11.6 0.457
17:57 1012 29.88 842 24.86 11.2 52.2 87 9.2 48.5 11.62 0.457
17:58 1013 29.91 842 24.86 11.3 52.3 87 9.3 48.7 11.61 0.457
17:59 1013 29.91 842 24.86 11.3 52.3 88 9.4 48.9 11.63 0.458
18:00 1013 29.91 842 24.86 11.3 52.3 88 9.4 48.9 11.61 0.457
18:01 1013 29.91 842 24.86 11.2 52.1 89 9.5 49.1 11.6 0.457
18:02 1013 29.91 842 24.86 11.1 52 90 9.5 49.2 11.51 0.453
18:03 1013 29.91 842 24.86 11 51.9 90 9.5 49.1 11.45 0.451
18:04 1013 29.91 842 24.86 11 51.8 91 9.6 49.2 11.37 0.448
18:05 1013 29.91 843 24.89 11 51.8 91 9.5 49.1 11.37 0.448
18:06 1013 29.91 843 24.89 11 51.8 90 9.5 49.1 11.35 0.447
18:07 1013 29.91 842 24.86 11 51.8 90 9.5 49 11.41 0.449
18:08 1013 29.91 842 24.86 11 51.8 90 9.4 49 11.37 0.448
18:09 1013 29.91 842 24.86 11 51.8 90 9.5 49 11.35 0.447
18:10 1013 29.91 842 24.86 11 51.8 90 9.4 48.9 11.35 0.447
18:11 1013 29.91 843 24.89 11 51.8 90 9.4 49 11.3 0.445
18:12 1013 29.91 843 24.89 11 51.7 90 9.3 48.8 11.3 0.445
18:13 1013 29.91 843 24.89 11 51.7 90 9.4 48.9 11.35 0.447
18:14 1013 29.91 843 24.89 11 51.8 90 9.4 49 11.29 0.444
18:15 1013 29.91 843 24.89 10.9 51.7 90 9.4 49 11.26 0.443
18:16 1013 29.91 843 24.89 10.9 51.6 91 9.5 49.1 11.24 0.443
18:17 1013 29.91 843 24.89 10.9 51.6 91 9.5 49.1 11.22 0.442
18:18 1013 29.91 843 24.89 10.9 51.5 91 9.5 49 11.21 0.441
18:19 1013 29.91 843 24.89 10.9 51.6 91 9.5 49.2 11.25 0.443
18:20 1013 29.91 842 24.86 10.9 51.6 92 9.6 49.3 11.25 0.443
18:21 1013 29.91 842 24.86 10.9 51.6 92 9.7 49.4 11.27 0.444
18:22 1013 29.91 842 24.86 10.9 51.6 92 9.6 49.4 11.25 0.443
18:23 1013 29.91 842 24.86 10.9 51.7 92 9.7 49.4 11.3 0.445
18:24 1013 29.91 842 24.86 10.9 51.7 92 9.7 49.4 11.33 0.446
18:25 1013 29.91 842 24.86 11 51.8 92 9.7 49.5 11.35 0.447
18:26 1013 29.91 842 24.86 11.1 51.9 92 9.7 49.5 11.43 0.45
18:27 1013 29.91 842 24.86 11.1 52 92 9.8 49.7 11.43 0.45
18:28 1013 29.91 842 24.86 11.1 52 92 9.9 49.8 11.46 0.451
18:29 1013 29.91 842 24.86 11.1 52 92 9.9 49.9 11.49 0.452
18:30 1013 29.91 842 24.86 11.1 52 92 9.9 49.9 11.49 0.452
18:31 1013 29.91 842 24.86 11.1 52.1 92 9.9 49.9 11.53 0.454
18:32 1013 29.91 842 24.86 11.2 52.1 92 10 50 11.47 0.452
18:33 1013 29.91 842 24.86 11.2 52.1 92 9.9 49.9 11.49 0.452
18:34 1013 29.91 842 24.86 11.2 52.1 93 10 50.1 11.51 0.453
18:35 1013 29.91 842 24.86 11.2 52.1 93 10 50 11.53 0.454
18:36 1013 29.91 842 24.86 11.2 52.1 93 10 50.1 11.51 0.453
18:37 1013 29.91 842 24.86 11.2 52.1 93 10 50 11.53 0.454
18:38 1013 29.91 842 24.86 11.2 52.1 93 10.1 50.1 11.51 0.453
18:39 1013 29.91 842 24.86 11.1 52.1 93 10.1 50.2 11.47 0.452
18:40 1013 29.91 842 24.86 11.1 52 93 10.1 50.1 11.48 0.452
18:41 1013 29.91 842 24.86 11.2 52.1 93 10.1 50.2 11.5 0.453
18:42 1013 29.91 842 24.86 11.1 52.1 93 10.1 50.2 11.51 0.453
18:43 1013 29.91 842 24.86 11.2 52.1 93 10.2 50.3 11.51 0.453
18:44 1012 29.88 842 24.86 11.1 52.1 94 10.2 50.3 11.49 0.452
18:45 1012 29.88 842 24.86 11.1 52 94 10.2 50.3 11.49 0.452
18:46 1012 29.88 842 24.86 11.1 52 94 10.1 50.2 11.44 0.45
18:47 1012 29.88 842 24.86 11.1 52 94 10.1 50.2 11.43 0.45
18:48 1012 29.88 842 24.86 11.1 51.9 93 10 50.1 11.4 0.449
18:49 1012 29.88 842 24.86 11.1 51.9 93 10 49.9 11.38 0.448
18:50 1012 29.88 842 24.86 11.1 51.9 92 9.9 49.8 11.37 0.448
18:51 1012 29.88 842 24.86 11.1 52 92 9.9 49.8 11.44 0.45
18:52 1012 29.88 842 24.86 11.2 52.1 92 9.8 49.7 11.46 0.451
18:53 1012 29.88 842 24.86 11.2 52.1 92 9.9 49.9 11.53 0.454
18:54 1012 29.88 842 24.86 11.2 52.1 92 9.9 49.8 11.47 0.452
18:55 1012 29.88 842 24.86 11.1 52.1 92 9.8 49.7 11.43 0.45
18:56 1012 29.88 842 24.86 11.1 52 92 9.8 49.7 11.4 0.449
18:57 1013 29.91 842 24.86 11.1 51.9 92 9.8 49.7 11.41 0.449
18:58 1013 29.91 842 24.86 11 51.8 92 9.8 49.6 11.34 0.446
18:59 1013 29.91 842 24.86 11 51.8 92 9.8 49.6 11.27 0.444
19:00 1013 29.91 842 24.86 10.9 51.7 92 9.6 49.4 11.29 0.444
19:01 1013 29.91 842 24.86 11 51.7 91 9.6 49.3 11.27 0.444
19:02 1013 29.91 842 24.86 11 51.8 92 9.7 49.4 11.25 0.443
19:03 1013 29.91 842 24.86 11 51.7 92 9.6 49.4 11.28 0.444
19:04 1013 29.91 842 24.86 11 51.7 91 9.6 49.2 11.25 0.443
19:05 1013 29.91 842 24.86 11 51.9 91 9.6 49.2 11.3 0.445
19:06 1013 29.91 842 24.86 11.1 51.9 90 9.6 49.2 11.32 0.446
19:07 1013 29.91 842 24.86 11.1 52 90 9.6 49.2 11.31 0.445
19:08 1012 29.88 841 24.83 11.1 51.9 90 9.5 49.1 11.39 0.448
19:09 1012 29.88 841 24.83 11.1 52 90 9.5 49.1 11.41 0.449
19:10 1011 29.85 841 24.83 11.1 52 90 9.4 49 11.43 0.45
19:11 1012 29.88 841 24.83 11.1 52 90 9.5 49.2 11.41 0.449
19:12 1012 29.88 841 24.83 11.1 51.9 91 9.6 49.2 11.41 0.449
19:13 1012 29.88 841 24.83 11 51.8 90 9.5 49.1 11.36 0.447
19:14 1012 29.88 841 24.83 11 51.9 91 9.6 49.2 11.35 0.447
19:15 1012 29.88 841 24.83 11 51.8 91 9.6 49.2 11.3 0.445
19:16 1012 29.88 841 24.83 11 51.8 91 9.6 49.2 11.31 0.445
19:17 1012 29.88 841 24.83 11 51.8 90 9.4 49 11.34 0.446
19:18 1012 29.88 841 24.83 11 51.9 90 9.4 49 11.39 0.448
19:19 1012 29.88 841 24.83 11.1 52 89 9.3 48.8 11.39 0.448
19:20 1012 29.88 841 24.83 11.2 52.1 89 9.4 48.9 11.47 0.452
19:21 1012 29.88 841 24.83 11.2 52.1 89 9.3 48.8 11.44 0.45
19:22 1012 29.88 841 24.83 11.2 52.1 89 9.4 48.9 11.45 0.451
19:23 1012 29.88 841 24.83 11.2 52.1 89 9.4 49 11.44 0.45
19:24 1012 29.88 841 24.83 11.1 52.1 89 9.3 48.8 11.4 0.449
19:25 1012 29.88 841 24.83 11.2 52.2 87 9.2 48.6 11.51 0.453
19:26 1012 29.88 841 24.83 11.3 52.4 87 9.3 48.7 11.56 0.455
19:27 1012 29.88 841 24.83 11.3 52.4 87 9.3 48.8 11.62 0.457
19:28 1012 29.88 841 24.83 11.4 52.5 87 9.4 48.8 11.66 0.459
19:29 1012 29.88 841 24.83 11.4 52.5 88 9.4 49 11.7 0.461
19:30 1012 29.88 841 24.83 11.3 52.3 88 9.4 48.9 11.58 0.456
19:31 1012 29.88 841 24.83 11.3 52.3 88 9.4 48.9 11.56 0.455
19:32 1012 29.88 841 24.83 11.3 52.3 89 9.5 49 11.51 0.453
19:33 1012 29.88 841 24.83 11.2 52.2 89 9.5 49.1 11.53 0.454
19:34 1012 29.88 841 24.83 11.2 52.1 89 9.5 49.1 11.49 0.452
19:35 1012 29.88 841 24.83 11.2 52.1 90 9.6 49.2 11.47 0.452
19:36 1012 29.88 841 24.83 11.1 51.9 90 9.6 49.2 11.4 0.449
19:37 1012 29.88 841 24.83 11 51.8 91 9.6 49.3 11.37 0.448
19:38 1012 29.88 841 24.83 11 51.8 91 9.6 49.3 11.29 0.444
19:39 1012 29.88 841 24.83 11 51.7 91 9.6 49.2 11.31 0.445
19:40 1012 29.88 841 24.83 11 51.8 91 9.6 49.3 11.25 0.443
19:41 1012 29.88 842 24.86 11 51.7 91 9.6 49.3 11.28 0.444
19:42 1012 29.88 842 24.86 11 51.7 91 9.6 49.3 11.32 0.446
19:43 1012 29.88 842 24.86 11 51.9 91 9.6 49.3 11.32 0.446
19:44 1012 29.88 842 24.86 11.1 51.9 91 9.6 49.3 11.35 0.447
19:45 1012 29.88 842 24.86 11.1 51.9 90 9.5 49.1 11.37 0.448
19:46 1013 29.91 842 24.86 11.1 52 90 9.6 49.3 11.45 0.451
19:47 1013 29.91 842 24.86 11.1 52.1 90 9.5 49.2 11.42 0.45
19:48 1013 29.91 842 24.86 11.2 52.1 90 9.5 49.2 11.47 0.452
19:49 1013 29.91 842 24.86 11.3 52.3 89 9.5 49 11.57 0.456
19:50 1012 29.88 842 24.86 11.3 52.4 89 9.5 49.2 11.6 0.457
19:51 1012 29.88 842 24.86 11.4 52.5 89 9.6 49.2 11.64 0.458
19:52 1013 29.91 842 24.86 11.4 52.4 89 9.6 49.3 11.65 0.459
19:53 1013 29.91 842 24.86 11.4 52.4 89 9.6 49.3 11.64 0.458
19:54 1013 29.91 842 24.86 11.4 52.5 89 9.7 49.4 11.63 0.458
19:55 1013 29.91 842 24.86 11.3 52.4 89 9.6 49.4 11.6 0.457
19:56 1013 29.91 842 24.86 11.3 52.4 89 9.6 49.3 11.59 0.456
19:57 1013 29.91 842 24.86 11.3 52.4 89 9.5 49.1 11.61 0.457
19:58 1013 29.91 842 24.86 11.4 52.5 88 9.6 49.2 11.68 0.46
19:59 1013 29.91 842 24.86 11.4 52.5 89 9.6 49.3 11.72 0.461
20:00 1013 29.91 843 24.89 11.4 52.4 89 9.6 49.4 11.65 0.459
20:01 1014 29.94 843 24.89 11.3 52.3 88 9.4 49 11.63 0.458
20:02 1014 29.94 843 24.89 11.3 52.4 88 9.4 49 11.56 0.455
20:03 1014 29.94 843 24.89 11.4 52.4 87 9.3 48.8 11.65 0.459
20:04 1014 29.94 843 24.89 11.4 52.5 88 9.5 49.2 11.7 0.461
20:05 1014 29.94 843 24.89 11.3 52.3 89 9.6 49.3 11.61 0.457
20:06 1014 29.94 843 24.89 11.2 52.1 91 9.7 49.4 11.49 0.452
20:07 1014 29.94 843 24.89 11 51.8 92 9.7 49.5 11.38 0.448
20:08 1013 29.91 843 24.89 10.9 51.7 92 9.7 49.5 11.29 0.444
20:09 1013 29.91 843 24.89 10.8 51.5 92 9.7 49.4 11.22 0.442
20:10 1013 29.91 842 24.86 10.8 51.4 93 9.7 49.4 11.1 0.437
20:11 1013 29.91 842 24.86 10.8 51.4 92 9.6 49.3 11.11 0.437
20:12 1013 29.91 842 24.86 10.8 51.4 92 9.5 49.2 11.11 0.437
20:13 1013 29.91 842 24.86 10.9 51.5 91 9.5 49.1 11.17 0.44
20:14 1013 29.91 842 24.86 10.9 51.7 91 9.6 49.2 11.23 0.442
20:15 1013 29.91 842 24.86 11 51.7 92 9.6 49.3 11.21 0.441
20:16 1013 29.91 842 24.86 10.9 51.7 91 9.5 49.2 11.19 0.441
20:17 1013 29.91 842 24.86 10.9 51.7 91 9.5 49.1 11.25 0.443
20:18 1013 29.91 842 24.86 11 51.7 91 9.5 49.1 11.32 0.446
20:19 1013 29.91 842 24.86 11 51.8 90 9.5 49.1 11.37 0.448
20:20 1013 29.91 843 24.89 11 51.9 91 9.5 49.2 11.34 0.446
20:21 1013 29.91 843 24.89 11 51.9 90 9.5 49.1 11.35 0.447
20:22 1013 29.91 842 24.86 11 51.9 90 9.5 49.1 11.36 0.447
20:23 1013 29.91 842 24.86 11.1 51.9 90 9.5 49 11.37 0.448
20:24 1013 29.91 842 24.86 11.1 51.9 90 9.5 49 11.39 0.448
20:25 1013 29.91 842 24.86 11.1 51.9 90 9.4 49 11.44 0.45
20:26 1013 29.91 842 24.86 11.1 52 89 9.4 49 11.45 0.451
20:27 1013 29.91 842 24.86 11.1 52 89 9.4 48.9 11.45 0.451
20:28 1013 29.91 842 24.86 11.1 52 89 9.4 48.8 11.45 0.451
20:29 1013 29.91 842 24.86 11.2 52.1 89 9.4 48.9 11.53 0.454
20:30 1013 29.91 842 24.86 11.2 52.1 89 9.4 48.9 11.55 0.455
20:31 1013 29.91 842 24.86 11.2 52.2 88 9.4 48.9 11.54 0.454
20:32 1013 29.91 842 24.86 11.2 52.2 88 9.4 48.9 11.54 0.454
20:33 1013 29.91 842 24.86 11.2 52.2 88 9.3 48.8 11.53 0.454
20:34 1013 29.91 842 24.86 11.2 52.2 88 9.3 48.7 11.58 0.456
20:35 1013 29.91 842 24.86 11.2 52.2 87 9.1 48.4 11.58 0.456
20:36 1013 29.91 842 24.86 11.2 52.2 87 9.2 48.5 11.53 0.454
20:37 1013 29.91 842 24.86 11.2 52.2 87 9.2 48.5 11.55 0.455
20:38 1013 29.91 842 24.86 11.2 52.2 87 9.2 48.5 11.53 0.454
20:39 1013 29.91 842 24.86 11.2 52.1 86 8.9 48 11.5 0.453
20:40 1013 29.91 842 24.86 11.2 52.1 86 8.9 48.1 11.51 0.453
20:41 1013 29.91 842 24.86 11.2 52.1 87 9 48.2 11.48 0.452
20:42 1013 29.91 842 24.86 11.1 52 87 9 48.3 11.41 0.449
20:43 1013 29.91 842 24.86 11.1 51.9 86 8.9 48 11.37 0.448
20:44 1013 29.91 842 24.86 11.1 52 87 9.1 48.3 11.39 0.448
20:45 1013 29.91 842 24.86 11 51.8 88 9.1 48.4 11.35 0.447
20:46 1013 29.91 842 24.86 10.9 51.7 89 9.1 48.4 11.25 0.443
20:47 1013 29.91 842 24.86 10.8 51.5 89 9.1 48.4 11.15 0.439
20:48 1013 29.91 842 24.86 10.8 51.4 89 9.1 48.4 11.11 0.437
20:49 1013 29.91 843 24.89 10.8 51.4 90 9.1 48.4 11.08 0.436
20:50 1013 29.91 843 24.89 10.7 51.3 90 9.1 48.4 11.04 0.435
20:51 1013 29.91 843 24.89 10.7 51.3 89 9.1 48.3 11.02 0.434
20:52 1013 29.91 843 24.89 10.8 51.4 88 8.9 48.1 11.04 0.435
20:53 1013 29.91 843 24.89 10.8 51.4 88 8.9 48 11.1 0.437
20:54 1013 29.91 843 24.89 10.8 51.5 88 8.9 48.1 11.15 0.439
20:55 1013 29.91 842 24.86 10.8 51.5 88 8.9 48.1 11.14 0.439
20:56 1013 29.91 842 24.86 10.8 51.4 88 8.9 48.1 11.11 0.437
20:57 1013 29.91 842 24.86 10.8 51.4 88 9 48.1 11.1 0.437
20:58 1013 29.91 842 24.86 10.8 51.4 88 8.9 48.1 11.08 0.436
20:59 1013 29.91 842 24.86 10.8 51.4 88 8.9 48.1 11.03 0.434
21:00 1013 29.91 842 24.86 10.7 51.3 88 8.9 48 11.1 0.437
21:01 1013 29.91 842 24.86 10.7 51.3 89 9 48.2 11.11 0.437
21:02 1013 29.91 842 24.86 10.7 51.3 89 9 48.2 11.05 0.435
21:03 1013 29.91 842 24.86 10.8 51.4 88 8.9 48.1 11.07 0.436
21:04 1013 29.91 842 24.86 10.7 51.3 89 9 48.2 11.08 0.436
21:05 1013 29.91 842 24.86 10.7 51.3 89 9.1 48.3 11.07 0.436
21:06 1013 29.91 842 24.86 10.7 51.3 90 9.1 48.4 11.08 0.436
21:07 1013 29.91 842 24.86 10.7 51.3 90 9.1 48.4 11.07 0.436
21:08 1013 29.91 842 24.86 10.7 51.3 90 9.2 48.5 11.05 0.435
21:09 1013 29.91 842 24.86 10.7 51.2 90 9.1 48.5 11.03 0.434
21:10 1013 29.91 842 24.86 10.6 51.1 91 9.1 48.4 10.98 0.432
21:11 1013 29.91 842 24.86 10.6 51 91 9.2 48.5 10.93 0.43
21:12 1013 29.91 842 24.86 10.6 51 91 9.2 48.6 10.9 0.429
21:13 1013 29.91 843 24.89 10.5 50.8 91 9.1 48.4 10.79 0.425
21:14 1013 29.91 843 24.89 10.5 50.8 92 9.2 48.5 10.79 0.425
21:15 1013 29.91 843 24.89 10.4 50.8 92 9.1 48.4 10.78 0.424
21:16 1013 29.91 843 24.89 10.5 50.8 91 9.1 48.3 10.79 0.425
21:17 1013 29.91 843 24.89 10.4 50.8 91 9 48.2 10.74 0.423
21:18 1013 29.91 843 24.89 10.5 50.8 91 9 48.2 10.71 0.422
21:19 1013 29.91 842 24.86 10.5 50.8 90 9 48.2 10.72 0.422
21:20 1013 29.91 842 24.86 10.5 50.9 90 9 48.1 10.77 0.424
21:21 1013 29.91 842 24.86 10.6 51 90 9 48.1 10.83 0.426
21:22 1013 29.91 842 24.86 10.6 51 90 9 48.1 10.91 0.43
21:23 1013 29.91 842 24.86 10.6 51.1 90 9 48.2 10.88 0.428
21:24 1013 29.91 842 24.86 10.6 51.1 90 9 48.1 10.92 0.43
21:25 1013 29.91 842 24.86 10.6 51.1 90 9 48.3 10.97 0.432
21:26 1013 29.91 842 24.86 10.6 51.2 90 9 48.3 10.97 0.432
21:27 1013 29.91 842 24.86 10.6 51.1 90 9 48.3 10.98 0.432
21:28 1013 29.91 842 24.86 10.6 51.1 90 9.1 48.3 10.98 0.432
21:29 1013 29.91 842 24.86 10.6 51 90 9 48.3 10.96 0.431
21:30 1013 29.91 842 24.86 10.6 51 90 9.1 48.3 10.92 0.43
21:31 1013 29.91 842 24.86 10.6 51 90 9.1 48.4 10.9 0.429
21:32 1013 29.91 842 24.86 10.5 50.9 90 9 48.2 10.91 0.43
21:33 1013 29.91 842 24.86 10.5 51 90 9 48.2 10.91 0.43
21:34 1013 29.91 842 24.86 10.5 50.9 90 9 48.2 10.86 0.428
21:35 1013 29.91 843 24.89 10.5 50.8 91 9 48.2 10.8 0.425
21:36 1013 29.91 843 24.89 10.5 50.8 91 9 48.2 10.78 0.424
21:37 1013 29.91 843 24.89 10.4 50.7 91 9 48.3 10.74 0.423
21:38 1013 29.91 843 24.89 10.4 50.6 92 9.1 48.3 10.67 0.42
21:39 1014 29.94 843 24.89 10.3 50.5 92 9 48.3 10.65 0.419
21:40 1014 29.94 843 24.89 10.3 50.6 92 9.1 48.3 10.62 0.418
21:41 1014 29.94 843 24.89 10.4 50.6 92 9.1 48.3 10.66 0.42
21:42 1014 29.94 843 24.89 10.4 50.7 92 9.1 48.4 10.67 0.42
21:43 1014 29.94 843 24.89 10.4 50.6 92 9.1 48.4 10.7 0.421
21:44 1014 29.94 843 24.89 10.4 50.6 92 9.2 48.5 10.64 0.419
21:45 1014 29.94 843 24.89 10.3 50.5 93 9.2 48.5 10.66 0.42
21:46 1014 29.94 843 24.89 10.2 50.3 93 9.1 48.4 10.59 0.417
21:47 1014 29.94 843 24.89 10.2 50.4 93 9.2 48.6 10.61 0.418
21:48 1014 29.94 843 24.89 10.2 50.4 94 9.3 48.7 10.6 0.417
21:49 1014 29.94 843 24.89 10.2 50.4 94 9.3 48.7 10.58 0.417
21:50 1014 29.94 843 24.89 10.3 50.5 94 9.3 48.8 10.63 0.419
21:51 1014 29.94 843 24.89 10.3 50.5 94 9.3 48.7 10.62 0.418
21:52 1014 29.94 843 24.89 10.3 50.5 94 9.3 48.8 10.6 0.417
21:53 1014 29.94 843 24.89 10.2 50.4 94 9.3 48.7 10.59 0.417
21:54 1013 29.91 842 24.86 10.2 50.4 94 9.3 48.7 10.61 0.418
21:55 1013 29.91 842 24.86 10.2 50.4 94 9.4 48.9 10.59 0.417
21:56 1012 29.88 841 24.83 10.2 50.4 95 9.4 48.9 10.59 0.417
21:57 1012 29.88 841 24.83 10.2 50.4 94 9.4 48.8 10.58 0.417
21:58 1012 29.88 842 24.86 10.3 50.5 94 9.3 48.8 10.57 0.416
21:59 1012 29.88 842 24.86 10.3 50.6 94 9.4 48.9 10.66 0.42
22:00 1012 29.88 842 24.86 10.3 50.6 94 9.4 48.9 10.63 0.419
22:01 1012 29.88 842 24.86 10.3 50.6 94 9.4 48.9 10.66 0.42
22:02 1012 29.88 842 24.86 10.3 50.5 94 9.4 48.9 10.65 0.419
22:03 1012 29.88 842 24.86 10.3 50.6 94 9.4 48.9 10.64 0.419
22:04 1012 29.88 842 24.86 10.3 50.6 93 9.3 48.7 10.63 0.419
22:05 1013 29.91 842 24.86 10.3 50.6 93 9.2 48.6 10.68 0.42
22:06 1013 29.91 842 24.86 10.3 50.6 93 9.2 48.5 10.7 0.421
22:07 1013 29.91 842 24.86 10.4 50.7 92 9.2 48.6 10.64 0.419
22:08 1013 29.91 842 24.86 10.4 50.7 92 9.2 48.5 10.65 0.419
22:09 1013 29.91 842 24.86 10.3 50.6 93 9.2 48.5 10.59 0.417
22:10 1013 29.91 842 24.86 10.3 50.5 93 9.1 48.4 10.57 0.416
22:11 1013 29.91 842 24.86 10.2 50.4 93 9.1 48.4 10.57 0.416
22:12 1013 29.91 842 24.86 10.2 50.4 92 9 48.3 10.54 0.415
22:13 1013 29.91 842 24.86 10.2 50.4 92 9 48.2 10.47 0.412
22:14 1013 29.91 842 24.86 10.1 50.3 92 9 48.2 10.44 0.411
22:15 1013 29.91 842 24.86 10.1 50.2 92 8.9 48.1 10.39 0.409
22:16 1013 29.91 842 24.86 10.1 50.1 92 8.9 48 10.36 0.408
22:17 1013 29.91 842 24.86 10 50 93 8.9 47.9 10.36 0.408
22:18 1013 29.91 842 24.86 10 50 92 8.8 47.9 10.26 0.404
22:19 1013 29.91 842 24.86 10 50 93 8.8 47.9 10.25 0.404
22:20 1013 29.91 842 24.86 10 49.9 92 8.8 47.8 10.2 0.402
22:21 1013 29.91 842 24.86 9.9 49.8 92 8.7 47.6 10.16 0.4
22:22 1013 29.91 842 24.86 9.8 49.7 93 8.7 47.7 10.11 0.398
22:23 1013 29.91 842 24.86 9.7 49.5 93 8.6 47.5 10.11 0.398
22:24 1013 29.91 842 24.86 9.7 49.4 93 8.6 47.5 9.97 0.393
22:25 1013 29.91 842 24.86 9.6 49.3 94 8.7 47.6 9.94 0.391
22:26 1013 29.91 842 24.86 9.6 49.2 94 8.6 47.5 9.9 0.39
22:27 1013 29.91 842 24.86 9.6 49.2 94 8.7 47.6 9.89 0.389
22:28 1013 29.91 842 24.86 9.6 49.2 94 8.7 47.6 9.89 0.389
22:29 1013 29.91 842 24.86 9.6 49.3 94 8.7 47.7 9.88 0.389
22:30 1013 29.91 842 24.86 9.6 49.2 94 8.7 47.7 9.89 0.389
22:31 1013 29.91 842 24.86 9.6 49.3 94 8.8 47.8 9.88 0.389
22:32 1013 29.91 842 24.86 9.6 49.3 94 8.7 47.7 9.91 0.39
22:33 1013 29.91 842 24.86 9.6 49.3 94 8.7 47.7 9.94 0.391
22:34 1013 29.91 842 24.86 9.7 49.4 94 8.8 47.8 9.89 0.389
22:35 1013 29.91 842 24.86 9.7 49.4 94 8.8 47.8 9.95 0.392
22:36 1013 29.91 842 24.86 9.7 49.4 94 8.7 47.7 9.97 0.393
22:37 1013 29.91 842 24.86 9.7 49.5 94 8.8 47.8 9.97 0.393
22:38 1013 29.91 842 24.86 9.7 49.4 94 8.7 47.7 9.99 0.393
22:39 1013 29.91 842 24.86 9.7 49.4 94 8.7 47.7 9.97 0.393
22:40 1013 29.91 842 24.86 9.7 49.4 94 8.7 47.7 9.94 0.391
22:41 1013 29.91 842 24.86 9.6 49.3 94 8.6 47.6 9.88 0.389
22:42 1013 29.91 842 24.86 9.6 49.2 94 8.7 47.6 9.89 0.389
22:43 1013 29.91 842 24.86 9.6 49.3 94 8.7 47.6 9.87 0.389
22:44 1013 29.91 842 24.86 9.6 49.2 94 8.6 47.5 9.86 0.388
22:45 1013 29.91 842 24.86 9.5 49.1 94 8.6 47.5 9.82 0.387
22:46 1013 29.91 842 24.86 9.5 49.1 94 8.6 47.5 9.8 0.386
22:47 1013 29.91 842 24.86 9.5 49 94 8.6 47.5 9.74 0.383
22:48 1013 29.91 842 24.86 9.5 49 95 8.7 47.6 9.81 0.386
22:49 1013 29.91 842 24.86 9.5 49 95 8.7 47.6 9.82 0.387
22:50 1013 29.91 842 24.86 9.6 49.2 94 8.7 47.6 9.89 0.389
22:51 1013 29.91 842 24.86 9.6 49.2 94 8.7 47.7 9.88 0.389
22:52 1013 29.91 842 24.86 9.6 49.2 94 8.7 47.6 9.93 0.391
22:53 1013 29.91 842 24.86 9.6 49.2 94 8.7 47.7 9.92 0.391
22:54 1013 29.91 842 24.86 9.7 49.4 94 8.7 47.6 10.05 0.396
22:55 1013 29.91 842 24.86 9.8 49.7 93 8.7 47.7 10.18 0.401
22:56 1013 29.91 842 24.86 10 49.9 92 8.8 47.8 10.26 0.404
22:57 1013 29.91 842 24.86 10 50.1 91 8.7 47.7 10.41 0.41
22:58 1013 29.91 842 24.86 10.2 50.4 90 8.7 47.7 10.55 0.415
22:59 1013 29.91 842 24.86 10.4 50.6 90 8.8 47.9 10.64 0.419
23:00 1013 29.91 842 24.86 10.4 50.7 90 8.8 47.8 10.68 0.42
23:01 1013 29.91 842 24.86 10.4 50.8 89 8.8 47.8 10.72 0.422
23:02 1013 29.91 842 24.86 10.5 50.9 89 8.8 47.8 10.76 0.424
23:03 1012 29.88 842 24.86 10.4 50.8 90 8.8 47.9 10.77 0.424
23:04 1012 29.88 842 24.86 10.5 50.8 90 8.9 48 10.74 0.423
23:05 1012 29.88 842 24.86 10.4 50.8 90 8.8 47.9 10.7 0.421
23:06 1012 29.88 842 24.86 10.4 50.7 90 8.8 47.9 10.66 0.42
23:07 1012 29.88 842 24.86 10.4 50.6 90 8.8 47.9 10.62 0.418
23:08 1012 29.88 842 24.86 10.3 50.6 90 8.8 47.8 10.62 0.418
23:09 1012 29.88 842 24.86 10.3 50.5 90 8.8 47.8 10.6 0.417
23:10 1012 29.88 842 24.86 10.3 50.5 90 8.8 47.8 10.6 0.417
23:11 1012 29.88 842 24.86 10.2 50.4 91 8.8 47.8 10.53 0.415
23:12 1013 29.91 842 24.86 10.2 50.3 91 8.8 47.8 10.47 0.412
23:13 1012 29.88 842 24.86 10.1 50.3 91 8.7 47.7 10.42 0.41
23:14 1012 29.88 842 24.86 10.1 50.2 91 8.7 47.7 10.37 0.408
23:15 1012 29.88 842 24.86 10.1 50.1 91 8.7 47.6 10.38 0.409
23:16 1012 29.88 842 24.86 10 50.1 91 8.6 47.5 10.35 0.407
23:17 1012 29.88 842 24.86 10.1 50.1 91 8.6 47.5 10.37 0.408
23:18 1012 29.88 842 24.86 10 50.1 91 8.6 47.5 10.35 0.407
23:19 1012 29.88 842 24.86 10 50 91 8.6 47.5 10.34 0.407
23:20 1012 29.88 842 24.86 10 49.9 91 8.6 47.4 10.26 0.404
23:21 1012 29.88 842 24.86 9.9 49.9 91 8.5 47.3 10.24 0.403
23:22 1012 29.88 842 24.86 9.9 49.7 91 8.5 47.2 10.15 0.4
23:23 1012 29.88 842 24.86 9.8 49.6 91 8.5 47.2 10.13 0.399
23:24 1012 29.88 842 24.86 9.7 49.4 92 8.4 47.1 10.07 0.396
23:25 1012 29.88 842 24.86 9.6 49.3 92 8.3 47 9.99 0.393
23:26 1012 29.88 841 24.83 9.5 49.2 92 8.3 47 9.87 0.389
23:27 1012 29.88 841 24.83 9.5 49 92 8.3 46.9 9.84 0.387
23:28 1012 29.88 842 24.86 9.4 48.9 93 8.3 46.9 9.76 0.384
23:29 1012 29.88 841 24.83 9.4 49 93 8.3 47 9.79 0.385
23:30 1012 29.88 841 24.83 9.4 49 92 8.2 46.8 9.76 0.384
23:31 1012 29.88 842 24.86 9.4 48.9 93 8.3 46.9 9.72 0.383
23:32 1012 29.88 841 24.83 9.4 48.9 93 8.2 46.8 9.75 0.384
23:33 1012 29.88 841 24.83 9.4 48.9 92 8.2 46.8 9.72 0.383
23:34 1012 29.88 841 24.83 9.5 49 92 8.2 46.8 9.79 0.385
23:35 1012 29.88 841 24.83 9.5 49.2 91 8.2 46.7 9.81 0.386
23:36 1012 29.88 841 24.83 9.6 49.3 91 8.2 46.7 9.92 0.391
23:37 1012 29.88 841 24.83 9.7 49.5 90 8.1 46.7 10.02 0.394
23:38 1012 29.88 841 24.83 9.8 49.7 89 8.1 46.7 10.07 0.396
23:39 1012 29.88 841 24.83 9.9 49.7 89 8.1 46.6 10.12 0.398
23:40 1012 29.88 841 24.83 9.9 49.8 89 8.1 46.6 10.18 0.401
23:41 1012 29.88 841 24.83 9.9 49.9 88 8.1 46.6 10.16 0.4
23:42 1012 29.88 841 24.83 9.9 49.9 88 8.1 46.6 10.14 0.399
23:43 1012 29.88 841 24.83 9.8 49.7 89 8 46.5 10.05 0.396
23:44 1012 29.88 841 24.83 9.7 49.5 89 8.1 46.5 9.99 0.393
23:45 1012 29.88 841 24.83 9.6 49.3 90 8 46.4 9.93 0.391
23:46 1012 29.88 841 24.83 9.6 49.2 90 8 46.4 9.82 0.387
23:47 1012 29.88 841 24.83 9.5 49 90 8 46.3 9.8 0.386
23:48 1012 29.88 841 24.83 9.4 48.9 90 7.9 46.3 9.72 0.383
23:49 1012 29.88 841 24.83 9.4 48.9 91 8 46.3 9.68 0.381
23:50 1012 29.88 841 24.83 9.4 49 91 8 46.4 9.75 0.384
23:51 1012 29.88 841 24.83 9.4 49 91 8 46.4 9.76 0.384
23:52 1012 29.88 841 24.83 9.5 49.1 90 8 46.4 9.82 0.387
23:53 1012 29.88 841 24.83 9.5 49.2 90 8 46.4 9.84 0.387
23:54 1012 29.88 841 24.83 9.6 49.2 90 8 46.3 9.87 0.389
23:55 1012 29.88 841 24.83 9.7 49.4 89 8 46.4 9.98 0.393
23:56 1012 29.88 841 24.83 9.8 49.6 89 8 46.5 10.02 0.394
23:57 1012 29.88 841 24.83 9.9 49.7 88 8 46.5 10.14 0.399
23:58 1012 29.88 841 24.83 9.9 49.9 88 8 46.5 10.2 0.402
23:59 1012 29.88 841 24.83 10 49.9 88 8 46.5 10.24 0.403
24:00 1012 29.88 841 24.83 9.9 49.8 88 8 46.5 10.19 0.401